Observation data for Boys Ranch on 02/24/2021      Previous  Date  Next       Current Mesonet Observations  Soil Data  Daily Summary Page  Observations in Plain Language
KBY1 240600Z 00014G20KT 10/M05 A299 RMK A01 T01001046  RH  035%=      5-min Rain = 0
KBY1 240601Z 01012KT 10/M05 A299 RMK A01 T01001046  RH  035%=      5-min Rain = 0
KBY1 240602Z 01010KT 10/M05 A299 RMK A01 T01011046  RH  035%=      5-min Rain = 0
KBY1 240603Z 02012G17KT 10/M05 A299 RMK A01 T00991047  RH  035%=      5-min Rain = 0
KBY1 240604Z 01012KT 10/M05 A299 RMK A01 T00991047  RH  036%=      5-min Rain = 0
KBY1 240605Z 02013KT 10/M05 A299 RMK A01 T00991047  RH  036%=      5-min Rain = 0
KBY1 240606Z 01015KT 10/M05 A299 RMK A01 T00991046  RH  036%=      5-min Rain = 0
KBY1 240607Z 02015G23KT 10/M05 A299 RMK A01 T00991046  RH  036%=      5-min Rain = 0
KBY1 240608Z 02016G25KT 10/M05 A299 RMK A01 T00991046  RH  036%=      5-min Rain = 0
KBY1 240609Z 02021KT 10/M05 A299 RMK A01 T00991046  RH  036%=      5-min Rain = 0
KBY1 240610Z 02021G26KT 10/M05 A299 RMK A01 T00991046  RH  036%=      5-min Rain = 0
KBY1 240611Z 01020G29KT 10/M05 A2989 RMK A01 T00991046  RH  036%=      5-min Rain = 0
KBY1 240612Z 02021G27KT 10/M05 A299 RMK A01 T00991046  RH  036%=      5-min Rain = 0
KBY1 240613Z 02021KT 10/M05 A299 RMK A01 T00991046  RH  036%=      5-min Rain = 0
KBY1 240614Z 01018KT 10/M05 A299 RMK A01 T00981046  RH  036%=      5-min Rain = 0
KBY1 240615Z 02020G26KT 10/M05 A2989 RMK A01 T00981046  RH  036%=      5-min Rain = 0
KBY1 240616Z 02017G23KT 10/M05 A2989 RMK A01 T00971046  RH  036%=      5-min Rain = 0
KBY1 240617Z 02023G32KT 10/M05 A2989 RMK A01 T00961046  RH  036%=      5-min Rain = 0
KBY1 240618Z 02024G32KT 10/M05 A299 RMK A01 T00961045  RH  036%=      5-min Rain = 0
KBY1 240619Z 02025G31KT 10/M05 A299 RMK A01 T00971045  RH  036%=      5-min Rain = 0
KBY1 240620Z 02021G28KT 10/M05 A299 RMK A01 T00971045  RH  036%=      5-min Rain = 0
KBY1 240621Z 02019G27KT 10/M05 A299 RMK A01 T00971045  RH  036%=      5-min Rain = 0
KBY1 240622Z 02024KT 10/M05 A299 RMK A01 T00961045  RH  037%=      5-min Rain = 0
KBY1 240623Z 02023KT 10/M04 A299 RMK A01 T00961044  RH  037%=      5-min Rain = 0
KBY1 240624Z 02020G28KT 10/M05 A299 RMK A01 T00961045  RH  037%=      5-min Rain = 0
KBY1 240625Z 02024G31KT 10/M05 A299 RMK A01 T00961045  RH  037%=      5-min Rain = 0
KBY1 240626Z 02019G27KT 10/M04 A299 RMK A01 T00961044  RH  037%=      5-min Rain = 0
KBY1 240627Z 02022G29KT 10/M04 A299 RMK A01 T00951044  RH  037%=      5-min Rain = 0
KBY1 240628Z 03021G31KT 10/M04 A299 RMK A01 T00951044  RH  037%=      5-min Rain = 0
KBY1 240629Z 02018G25KT 09/M04 A2991 RMK A01 T00941044  RH  037%=      5-min Rain = 0
KBY1 240630Z 01021G29KT 09/M04 A2991 RMK A01 T00941044  RH  038%=      5-min Rain = 0
KBY1 240631Z 02021G26KT 09/M04 A2991 RMK A01 T00941044  RH  038%=      5-min Rain = 0
KBY1 240632Z 02020G25KT 09/M04 A2991 RMK A01 T00941044  RH  038%=      5-min Rain = 0
KBY1 240633Z 03019G26KT 09/M04 A2991 RMK A01 T00931043  RH  038%=      5-min Rain = 0
KBY1 240634Z 02018G23KT 09/M04 A2991 RMK A01 T00931043  RH  038%=      5-min Rain = 0
KBY1 240635Z 02016G22KT 09/M04 A2991 RMK A01 T00921044  RH  038%=      5-min Rain = 0
KBY1 240636Z 02014G21KT 09/M04 A2991 RMK A01 T00921043  RH  038%=      5-min Rain = 0
KBY1 240637Z 02014KT 09/M04 A2991 RMK A01 T00911043  RH  039%=      5-min Rain = 0
KBY1 240638Z 03016G22KT 09/M04 A2992 RMK A01 T00901043  RH  039%=      5-min Rain = 0
KBY1 240639Z 02018KT 09/M04 A2992 RMK A01 T00891043  RH  039%=      5-min Rain = 0
KBY1 240640Z 02018G24KT 09/M04 A2992 RMK A01 T00901043  RH  039%=      5-min Rain = 0
KBY1 240641Z 02013G20KT 09/M04 A2992 RMK A01 T00901043  RH  039%=      5-min Rain = 0
KBY1 240642Z 03013G19KT 09/M04 A2992 RMK A01 T00891043  RH  039%=      5-min Rain = 0
KBY1 240643Z 03015G20KT 09/M04 A2993 RMK A01 T00891043  RH  039%=      5-min Rain = 0
KBY1 240644Z 03011KT 09/M04 A2993 RMK A01 T00881043  RH  039%=      5-min Rain = 0
KBY1 240645Z 02011G16KT 09/M04 A2993 RMK A01 T00891042  RH  039%=      5-min Rain = 0
KBY1 240646Z 03011KT 09/M04 A2993 RMK A01 T00881042  RH  040%=      5-min Rain = 0
KBY1 240647Z 03010G16KT 09/M04 A2994 RMK A01 T00881042  RH  040%=      5-min Rain = 0
KBY1 240648Z 03011KT 09/M04 A2994 RMK A01 T00871042  RH  040%=      5-min Rain = 0
KBY1 240649Z 03009KT 09/M04 A2995 RMK A01 T00871042  RH  040%=      5-min Rain = 0
KBY1 240650Z 03006KT 09/M04 A2995 RMK A01 T00871042  RH  040%=      5-min Rain = 0
KBY1 240651Z 05008G13KT 09/M04 A2995 RMK A01 T00871042  RH  040%=      5-min Rain = 0
KBY1 240652Z 03006G11KT 09/M04 A2995 RMK A01 T00861042  RH  040%=      5-min Rain = 0
KBY1 240653Z 08005G10KT 09/M04 A2996 RMK A01 T00861042  RH  040%=      5-min Rain = 0
KBY1 240654Z 05007G13KT 09/M04 A2996 RMK A01 T00861042  RH  040%=      5-min Rain = 0
KBY1 240655Z 06003KT 09/M04 A2996 RMK A01 T00851042  RH  040%=      5-min Rain = 0
KBY1 240656Z 16002KT 09/M04 A2997 RMK A01 T00851042  RH  041%=      5-min Rain = 0
KBY1 240657Z 15003KT 09/M04 A2997 RMK A01 T00851042  RH  041%=      5-min Rain = 0
KBY1 240658Z 06002KT 09/M04 A2997 RMK A01 T00861041  RH  040%=      5-min Rain = 0
KBY1 240659Z 19003KT 09/M04 A2997 RMK A01 T00861042  RH  040%=      5-min Rain = 0
KBY1 240700Z 23003KT 09/M04 A2997 RMK A01 T00871041  RH  040%=      5-min Rain = 0
KBY1 240701Z 24005KT 09/M04 A2997 RMK A01 T00861042  RH  040%=      5-min Rain = 0
KBY1 240702Z 22005KT 08/M04 A2997 RMK A01 T00841042  RH  041%=      5-min Rain = 0
KBY1 240703Z 22002KT 08/M04 A2998 RMK A01 T00841041  RH  041%=      5-min Rain = 0
KBY1 240704Z 17005KT 09/M04 A2997 RMK A01 T00851041  RH  041%=      5-min Rain = 0
KBY1 240705Z 25003KT 08/M04 A2998 RMK A01 T00841042  RH  041%=      5-min Rain = 0
KBY1 240706Z 29005KT 09/M04 A2998 RMK A01 T00851041  RH  041%=      5-min Rain = 0
KBY1 240707Z 31007KT 08/M04 A2998 RMK A01 T00841041  RH  041%=      5-min Rain = 0
KBY1 240708Z 33005KT 09/M04 A2998 RMK A01 T00851041  RH  041%=      5-min Rain = 0
KBY1 240709Z 30003KT 09/M04 A2998 RMK A01 T00851041  RH  041%=      5-min Rain = 0
KBY1 240710Z 30002KT 09/M04 A2998 RMK A01 T00851041  RH  041%=      5-min Rain = 0
KBY1 240711Z 28002KT 09/M04 A2998 RMK A01 T00851041  RH  041%=      5-min Rain = 0
KBY1 240712Z 27003KT 09/M04 A2998 RMK A01 T00851040  RH  041%=      5-min Rain = 0
KBY1 240713Z 18001KT 09/M04 A2999 RMK A01 T00851040  RH  041%=      5-min Rain = 0
KBY1 240714Z 27002KT 09/M04 A2999 RMK A01 T00861039  RH  041%=      5-min Rain = 0
KBY1 240715Z 35004KT 08/M04 A2999 RMK A01 T00841041  RH  041%=      5-min Rain = 0
KBY1 240716Z 31001KT 08/M04 A2999 RMK A01 T00831041  RH  041%=      5-min Rain = 0
KBY1 240717Z 21003KT 08/M04 A2999 RMK A01 T00831040  RH  042%=      5-min Rain = 0
KBY1 240718Z 26000KT 08/M04 A30 RMK A01 T00821040  RH  042%=      5-min Rain = 0
KBY1 240719Z 06001KT 08/M04 A30 RMK A01 T00821040  RH  042%=      5-min Rain = 0
KBY1 240720Z 06002KT 08/M04 A30 RMK A01 T00821040  RH  042%=      5-min Rain = 0
KBY1 240721Z 30004KT 08/M04 A3001 RMK A01 T00811040  RH  042%=      5-min Rain = 0
KBY1 240722Z 29004KT 08/M04 A3001 RMK A01 T00811039  RH  042%=      5-min Rain = 0
KBY1 240723Z 28003KT 08/M04 A3001 RMK A01 T00811039  RH  042%=      5-min Rain = 0
KBY1 240724Z 26003KT 08/M04 A3001 RMK A01 T00811039  RH  043%=      5-min Rain = 0
KBY1 240725Z 31005KT 08/M04 A3001 RMK A01 T00811039  RH  042%=      5-min Rain = 0
KBY1 240726Z 01005KT 08/M04 A3002 RMK A01 T00801039  RH  043%=      5-min Rain = 0
KBY1 240727Z 02006KT 08/M04 A3002 RMK A01 T00801038  RH  043%=      5-min Rain = 0
KBY1 240728Z 02004KT 08/M04 A3002 RMK A01 T00811038  RH  043%=      5-min Rain = 0
KBY1 240729Z 03005KT 08/M04 A3003 RMK A01 T00801039  RH  043%=      5-min Rain = 0
KBY1 240730Z 01006KT 08/M04 A3002 RMK A01 T00791039  RH  043%=      5-min Rain = 0
KBY1 240731Z 36007KT 08/M04 A3003 RMK A01 T00791038  RH  043%=      5-min Rain = 0
KBY1 240732Z 00004KT 08/M04 A3003 RMK A01 T00781038  RH  044%=      5-min Rain = 0
KBY1 240733Z 34006KT 08/M04 A3003 RMK A01 T00781038  RH  044%=      5-min Rain = 0
KBY1 240734Z 01006G12KT 08/M04 A3002 RMK A01 T00781038  RH  044%=      5-min Rain = 0
KBY1 240735Z 01005KT 08/M04 A3002 RMK A01 T00781037  RH  044%=      5-min Rain = 0
KBY1 240736Z 35005KT 08/M04 A3002 RMK A01 T00791037  RH  044%=      5-min Rain = 0
KBY1 240737Z 00005KT 08/M04 A3002 RMK A01 T00791038  RH  043%=      5-min Rain = 0
KBY1 240738Z 00006KT 08/M04 A3002 RMK A01 T00781038  RH  044%=      5-min Rain = 0
KBY1 240739Z 01008KT 08/M04 A3003 RMK A01 T00771038  RH  044%=      5-min Rain = 0
KBY1 240740Z 00007KT 08/M04 A3003 RMK A01 T00761038  RH  044%=      5-min Rain = 0
KBY1 240741Z 36007KT 08/M04 A3003 RMK A01 T00761038  RH  044%=      5-min Rain = 0
KBY1 240742Z 36006KT 07/M04 A3003 RMK A01 T00741038  RH  045%=      5-min Rain = 0
KBY1 240743Z 34010KT 07/M04 A3003 RMK A01 T00741038  RH  045%=      5-min Rain = 0
KBY1 240744Z 35010KT 07/M04 A3003 RMK A01 T00741037  RH  045%=      5-min Rain = 0
KBY1 240745Z 01008KT 08/M04 A3003 RMK A01 T00751037  RH  045%=      5-min Rain = 0
KBY1 240746Z 36007KT 08/M04 A3003 RMK A01 T00761037  RH  045%=      5-min Rain = 0
KBY1 240747Z 33010KT 08/M04 A3003 RMK A01 T00751037  RH  045%=      5-min Rain = 0
KBY1 240748Z 36009G15KT 07/M04 A3003 RMK A01 T00741037  RH  045%=      5-min Rain = 0
KBY1 240749Z 35008KT 07/M04 A3003 RMK A01 T00731037  RH  045%=      5-min Rain = 0
KBY1 240750Z 01009KT 07/M04 A3003 RMK A01 T00731037  RH  045%=      5-min Rain = 0
KBY1 240751Z 01007KT 07/M04 A3004 RMK A01 T00731038  RH  045%=      5-min Rain = 0
KBY1 240752Z 02008G13KT 07/M04 A3004 RMK A01 T00731038  RH  045%=      5-min Rain = 0
KBY1 240753Z 01006KT 07/M04 A3004 RMK A01 T00731038  RH  045%=      5-min Rain = 0
KBY1 240754Z 01005KT 07/M04 A3004 RMK A01 T00721038  RH  045%=      5-min Rain = 0
KBY1 240755Z 01005KT 07/M04 A3004 RMK A01 T00721038  RH  046%=      5-min Rain = 0
KBY1 240756Z 01004KT 07/M04 A3004 RMK A01 T00711038  RH  046%=      5-min Rain = 0
KBY1 240757Z 01006KT 07/M04 A3004 RMK A01 T00711038  RH  046%=      5-min Rain = 0
KBY1 240758Z 02007KT 07/M04 A3004 RMK A01 T00701038  RH  046%=      5-min Rain = 0
KBY1 240759Z 03008KT 07/M04 A3004 RMK A01 T00711038  RH  046%=      5-min Rain = 0
KBY1 240800Z 00006KT 07/M04 A3004 RMK A01 T00711038  RH  046%=      5-min Rain = 0
KBY1 240801Z 02005KT 07/M04 A3004 RMK A01 T00711038  RH  046%=      5-min Rain = 0
KBY1 240802Z 01005KT 07/M04 A3004 RMK A01 T00701038  RH  046%=      5-min Rain = 0
KBY1 240803Z 02005KT 07/M04 A3005 RMK A01 T00701038  RH  046%=      5-min Rain = 0
KBY1 240804Z 01005KT 07/M04 A3005 RMK A01 T00701038  RH  046%=      5-min Rain = 0
KBY1 240805Z 00004KT 07/M04 A3005 RMK A01 T00691038  RH  046%=      5-min Rain = 0
KBY1 240806Z 00005KT 07/M04 A3005 RMK A01 T00691039  RH  046%=      5-min Rain = 0
KBY1 240807Z 00006KT 07/M04 A3005 RMK A01 T00681038  RH  047%=      5-min Rain = 0
KBY1 240808Z 34005KT 07/M04 A3005 RMK A01 T00671039  RH  047%=      5-min Rain = 0
KBY1 240809Z 00006KT 07/M04 A3005 RMK A01 T00671039  RH  047%=      5-min Rain = 0
KBY1 240810Z 01007G13KT 07/M04 A3005 RMK A01 T00681038  RH  047%=      5-min Rain = 0
KBY1 240811Z 01007KT 07/M04 A3005 RMK A01 T00681039  RH  046%=      5-min Rain = 0
KBY1 240812Z 02009KT 07/M04 A3005 RMK A01 T00691038  RH  046%=      5-min Rain = 0
KBY1 240813Z 01009KT 07/M04 A3005 RMK A01 T00691038  RH  046%=      5-min Rain = 0
KBY1 240814Z 35009KT 07/M04 A3005 RMK A01 T00681038  RH  047%=      5-min Rain = 0
KBY1 240815Z 36009KT 07/M04 A3005 RMK A01 T00681038  RH  047%=      5-min Rain = 0
KBY1 240816Z 00009KT 07/M04 A3005 RMK A01 T00671038  RH  047%=      5-min Rain = 0
KBY1 240817Z 01007KT 07/M04 A3005 RMK A01 T00671038  RH  047%=      5-min Rain = 0
KBY1 240818Z 00007KT 07/M04 A3005 RMK A01 T00671038  RH  047%=      5-min Rain = 0
KBY1 240819Z 01006KT 07/M04 A3005 RMK A01 T00661038  RH  047%=      5-min Rain = 0
KBY1 240820Z 36005G10KT 07/M04 A3005 RMK A01 T00651038  RH  048%=      5-min Rain = 0
KBY1 240821Z 02003KT 07/M04 A3005 RMK A01 T00651038  RH  048%=      5-min Rain = 0
KBY1 240822Z 01005KT 06/M04 A3005 RMK A01 T00641038  RH  048%=      5-min Rain = 0
KBY1 240823Z 02004KT 06/M04 A3006 RMK A01 T00641038  RH  048%=      5-min Rain = 0
KBY1 240824Z 01004KT 06/M04 A3006 RMK A01 T00631039  RH  048%=      5-min Rain = 0
KBY1 240825Z 00005KT 06/M04 A3006 RMK A01 T00641038  RH  048%=      5-min Rain = 0
KBY1 240826Z 00004KT 06/M04 A3006 RMK A01 T00631038  RH  048%=      5-min Rain = 0
KBY1 240827Z 01007G12KT 06/M04 A3006 RMK A01 T00631038  RH  048%=      5-min Rain = 0
KBY1 240828Z 00010KT 06/M04 A3006 RMK A01 T00631038  RH  048%=      5-min Rain = 0
KBY1 240829Z 35009KT 06/M04 A3006 RMK A01 T00641038  RH  048%=      5-min Rain = 0
KBY1 240830Z 00007KT 06/M04 A3006 RMK A01 T00641039  RH  048%=      5-min Rain = 0
KBY1 240831Z 35007KT 06/M04 A3006 RMK A01 T00641038  RH  048%=      5-min Rain = 0
KBY1 240832Z 35008KT 06/M04 A3006 RMK A01 T00631039  RH  048%=      5-min Rain = 0
KBY1 240833Z 00008KT 06/M04 A3006 RMK A01 T00631039  RH  048%=      5-min Rain = 0
KBY1 240834Z 01006KT 06/M04 A3006 RMK A01 T00631039  RH  048%=      5-min Rain = 0
KBY1 240835Z 00005KT 06/M04 A3006 RMK A01 T00631039  RH  048%=      5-min Rain = 0
KBY1 240836Z 02006KT 06/M04 A3006 RMK A01 T00621039  RH  048%=      5-min Rain = 0
KBY1 240837Z 01007KT 06/M04 A3006 RMK A01 T00611040  RH  048%=      5-min Rain = 0
KBY1 240838Z 36005KT 06/M04 A3006 RMK A01 T00611040  RH  048%=      5-min Rain = 0
KBY1 240839Z 00006KT 06/M04 A3006 RMK A01 T00601041  RH  048%=      5-min Rain = 0
KBY1 240840Z 01011KT 06/M04 A3006 RMK A01 T00591041  RH  048%=      5-min Rain = 0
KBY1 240841Z 01009KT 06/M04 A3006 RMK A01 T00601041  RH  048%=      5-min Rain = 0
KBY1 240842Z 01009KT 06/M04 A3006 RMK A01 T00601040  RH  048%=      5-min Rain = 0
KBY1 240843Z 01009KT 06/M04 A3006 RMK A01 T00601041  RH  048%=      5-min Rain = 0
KBY1 240844Z 01007KT 06/M04 A3006 RMK A01 T00601041  RH  049%=      5-min Rain = 0
KBY1 240845Z 00005KT 06/M04 A3006 RMK A01 T00591041  RH  049%=      5-min Rain = 0
KBY1 240846Z 00004KT 06/M04 A3006 RMK A01 T00581041  RH  049%=      5-min Rain = 0
KBY1 240847Z 00006KT 06/M04 A3006 RMK A01 T00571042  RH  049%=      5-min Rain = 0
KBY1 240848Z 00005KT 06/M04 A3006 RMK A01 T00561043  RH  049%=      5-min Rain = 0
KBY1 240849Z 36004KT 06/M04 A3006 RMK A01 T00551042  RH  050%=      5-min Rain = 0
KBY1 240850Z 36004KT 05/M04 A3006 RMK A01 T00531043  RH  050%=      5-min Rain = 0
KBY1 240851Z 00004KT 05/M04 A3006 RMK A01 T00541042  RH  050%=      5-min Rain = 0
KBY1 240852Z 36004KT 05/M04 A3006 RMK A01 T00531042  RH  050%=      5-min Rain = 0
KBY1 240853Z 00003KT 05/M04 A3006 RMK A01 T00531043  RH  050%=      5-min Rain = 0
KBY1 240854Z 35004KT 05/M04 A3006 RMK A01 T00521044  RH  050%=      5-min Rain = 0
KBY1 240855Z 01005KT 05/M04 A3006 RMK A01 T00511043  RH  051%=      5-min Rain = 0
KBY1 240856Z 00006KT 05/M04 A3006 RMK A01 T00511043  RH  051%=      5-min Rain = 0
KBY1 240857Z 01008KT 05/M04 A3006 RMK A01 T00521042  RH  051%=      5-min Rain = 0
KBY1 240858Z 01006KT 05/M04 A3006 RMK A01 T00531041  RH  051%=      5-min Rain = 0
KBY1 240859Z 34007KT 05/M04 A3006 RMK A01 T00541042  RH  050%=      5-min Rain = 0
KBY1 240900Z 36010KT 05/M04 A3006 RMK A01 T00541042  RH  050%=      5-min Rain = 0
KBY1 240901Z 02010G15KT 05/M04 A3006 RMK A01 T00541041  RH  050%=      5-min Rain = 0
KBY1 240902Z 01007KT 06/M04 A3006 RMK A01 T00551041  RH  050%=      5-min Rain = 0
KBY1 240903Z 01009KT 06/M04 A3006 RMK A01 T00561041  RH  050%=      5-min Rain = 0
KBY1 240904Z 01008KT 06/M04 A3006 RMK A01 T00551041  RH  050%=      5-min Rain = 0
KBY1 240905Z 00010KT 06/M04 A3006 RMK A01 T00551041  RH  050%=      5-min Rain = 0
KBY1 240906Z 01009KT 06/M04 A3006 RMK A01 T00551041  RH  050%=      5-min Rain = 0
KBY1 240907Z 00008KT 06/M04 A3006 RMK A01 T00551041  RH  050%=      5-min Rain = 0
KBY1 240908Z 35005KT 06/M04 A3006 RMK A01 T00551041  RH  050%=      5-min Rain = 0
KBY1 240909Z 35005KT 05/M04 A3007 RMK A01 T00541041  RH  050%=      5-min Rain = 0
KBY1 240910Z 35005KT 05/M04 A3007 RMK A01 T00531042  RH  050%=      5-min Rain = 0
KBY1 240911Z 34004KT 05/M04 A3007 RMK A01 T00521042  RH  051%=      5-min Rain = 0
KBY1 240912Z 34005KT 05/M04 A3007 RMK A01 T00521042  RH  051%=      5-min Rain = 0
KBY1 240913Z 33004KT 05/M04 A3007 RMK A01 T00511042  RH  051%=      5-min Rain = 0
KBY1 240914Z 33004KT 05/M04 A3007 RMK A01 T00501043  RH  051%=      5-min Rain = 0
KBY1 240915Z 33005KT 05/M04 A3007 RMK A01 T00491043  RH  051%=      5-min Rain = 0
KBY1 240916Z 34006KT 05/M04 A3007 RMK A01 T00491042  RH  052%=      5-min Rain = 0
KBY1 240917Z 34006KT 05/M04 A3007 RMK A01 T00481043  RH  052%=      5-min Rain = 0
KBY1 240918Z 33004KT 05/M04 A3007 RMK A01 T00481042  RH  052%=      5-min Rain = 0
KBY1 240919Z 34005KT 05/M04 A3006 RMK A01 T00481042  RH  052%=      5-min Rain = 0
KBY1 240920Z 33005KT 05/M04 A3006 RMK A01 T00471042  RH  053%=      5-min Rain = 0
KBY1 240921Z 32005KT 05/M04 A3006 RMK A01 T00461042  RH  053%=      5-min Rain = 0
KBY1 240922Z 33005KT 05/M04 A3006 RMK A01 T00461041  RH  053%=      5-min Rain = 0
KBY1 240923Z 34005KT 05/M04 A3006 RMK A01 T00461041  RH  053%=      5-min Rain = 0
KBY1 240924Z 33006KT 05/M04 A3006 RMK A01 T00461041  RH  053%=      5-min Rain = 0
KBY1 240925Z 34004KT 05/M04 A3006 RMK A01 T00451042  RH  053%=      5-min Rain = 0
KBY1 240926Z 33004KT 05/M04 A3006 RMK A01 T00451042  RH  053%=      5-min Rain = 0
KBY1 240927Z 34003KT 05/M04 A3006 RMK A01 T00461041  RH  053%=      5-min Rain = 0
KBY1 240928Z 34003KT 04/M04 A3006 RMK A01 T00441042  RH  054%=      5-min Rain = 0
KBY1 240929Z 34004KT 04/M04 A3006 RMK A01 T00441042  RH  054%=      5-min Rain = 0
KBY1 240930Z 32004KT 04/M04 A3006 RMK A01 T00431042  RH  054%=      5-min Rain = 0
KBY1 240931Z 33003KT 04/M04 A3006 RMK A01 T00431042  RH  054%=      5-min Rain = 0
KBY1 240932Z 34003KT 04/M04 A3006 RMK A01 T00431041  RH  054%=      5-min Rain = 0
KBY1 240933Z 33002KT 04/M04 A3006 RMK A01 T00431041  RH  054%=      5-min Rain = 0
KBY1 240934Z 32003KT 04/M04 A3006 RMK A01 T00421042  RH  054%=      5-min Rain = 0
KBY1 240935Z 33003KT 04/M04 A3007 RMK A01 T00411042  RH  054%=      5-min Rain = 0
KBY1 240936Z 34003KT 04/M04 A3007 RMK A01 T00411042  RH  055%=      5-min Rain = 0
KBY1 240937Z 33004KT 04/M04 A3007 RMK A01 T00401042  RH  055%=      5-min Rain = 0
KBY1 240938Z 34004KT 04/M04 A3007 RMK A01 T00401042  RH  055%=      5-min Rain = 0
KBY1 240939Z 34005KT 04/M04 A3007 RMK A01 T00401042  RH  055%=      5-min Rain = 0
KBY1 240940Z 33005KT 04/M04 A3007 RMK A01 T00411042  RH  055%=      5-min Rain = 0
KBY1 240941Z 31004KT 04/M04 A3007 RMK A01 T00411042  RH  055%=      5-min Rain = 0
KBY1 240942Z 31004KT 04/M04 A3008 RMK A01 T00411042  RH  055%=      5-min Rain = 0
KBY1 240943Z 31005KT 04/M04 A3008 RMK A01 T00401042  RH  055%=      5-min Rain = 0
KBY1 240944Z 31005KT 04/M04 A3008 RMK A01 T00411042  RH  055%=      5-min Rain = 0
KBY1 240945Z 31005KT 04/M04 A3008 RMK A01 T00421042  RH  054%=      5-min Rain = 0
KBY1 240946Z 32006KT 04/M04 A3008 RMK A01 T00411043  RH  054%=      5-min Rain = 0
KBY1 240947Z 31007KT 04/M04 A3008 RMK A01 T00401043  RH  055%=      5-min Rain = 0
KBY1 240948Z 30005KT 04/M04 A3008 RMK A01 T00391043  RH  055%=      5-min Rain = 0
KBY1 240949Z 30006KT 04/M04 A3008 RMK A01 T00391043  RH  055%=      5-min Rain = 0
KBY1 240950Z 31005KT 04/M04 A3008 RMK A01 T00381043  RH  055%=      5-min Rain = 0
KBY1 240951Z 32005KT 04/M04 A3008 RMK A01 T00381044  RH  055%=      5-min Rain = 0
KBY1 240952Z 31005KT 04/M04 A3009 RMK A01 T00381044  RH  055%=      5-min Rain = 0
KBY1 240953Z 31005KT 04/M04 A3008 RMK A01 T00371044  RH  055%=      5-min Rain = 0
KBY1 240954Z 32004KT 04/M05 A3009 RMK A01 T00371045  RH  055%=      5-min Rain = 0
KBY1 240955Z 34003KT 04/M05 A3009 RMK A01 T00361045  RH  055%=      5-min Rain = 0
KBY1 240956Z 34004G9KT 04/M05 A3009 RMK A01 T00361045  RH  055%=      5-min Rain = 0
KBY1 240957Z 32006KT 04/M05 A3009 RMK A01 T00351046  RH  055%=      5-min Rain = 0
KBY1 240958Z 32005KT 04/M05 A3009 RMK A01 T00361046  RH  055%=      5-min Rain = 0
KBY1 240959Z 33006KT 04/M05 A3009 RMK A01 T00361047  RH  055%=      5-min Rain = 0
KBY1 241000Z 34007KT 04/M05 A3009 RMK A01 T00371047  RH  054%=      5-min Rain = 0
KBY1 241001Z 32005G10KT 04/M05 A301 RMK A01 T00381047  RH  054%=      5-min Rain = 0
KBY1 241002Z 33008KT 04/M05 A301 RMK A01 T00381048  RH  054%=      5-min Rain = 0
KBY1 241003Z 33006KT 04/M05 A301 RMK A01 T00381048  RH  053%=      5-min Rain = 0
KBY1 241004Z 33004KT 04/M05 A301 RMK A01 T00381048  RH  053%=      5-min Rain = 0
KBY1 241005Z 34004KT 04/M05 A301 RMK A01 T00371049  RH  053%=      5-min Rain = 0
KBY1 241006Z 33005KT 04/M05 A301 RMK A01 T00361049  RH  053%=      5-min Rain = 0
KBY1 241007Z 31005KT 04/M05 A301 RMK A01 T00361049  RH  054%=      5-min Rain = 0
KBY1 241008Z 31005KT 04/M05 A301 RMK A01 T00361049  RH  054%=      5-min Rain = 0
KBY1 241009Z 31007KT 04/M05 A301 RMK A01 T00351050  RH  054%=      5-min Rain = 0
KBY1 241010Z 31005KT 04/M05 A301 RMK A01 T00351050  RH  054%=      5-min Rain = 0
KBY1 241011Z 31004KT 04/M05 A301 RMK A01 T00351050  RH  054%=      5-min Rain = 0
KBY1 241012Z 31004KT 03/M05 A301 RMK A01 T00341051  RH  054%=      5-min Rain = 0
KBY1 241013Z 30006KT 03/M05 A301 RMK A01 T00331051  RH  054%=      5-min Rain = 0
KBY1 241014Z 31008KT 03/M05 A301 RMK A01 T00331051  RH  054%=      5-min Rain = 0
KBY1 241015Z 31007KT 03/M05 A3011 RMK A01 T00341050  RH  054%=      5-min Rain = 0
KBY1 241016Z 31005KT 03/M05 A3011 RMK A01 T00341051  RH  054%=      5-min Rain = 0
KBY1 241017Z 29004KT 04/M05 A3011 RMK A01 T00351051  RH  053%=      5-min Rain = 0
KBY1 241018Z 30004KT 04/M05 A3011 RMK A01 T00351051  RH  053%=      5-min Rain = 0
KBY1 241019Z 30005KT 04/M05 A3011 RMK A01 T00351051  RH  053%=      5-min Rain = 0
KBY1 241020Z 30006KT 03/M05 A3011 RMK A01 T00341051  RH  054%=      5-min Rain = 0
KBY1 241021Z 30005KT 03/M05 A3011 RMK A01 T00331052  RH  054%=      5-min Rain = 0
KBY1 241022Z 29005KT 03/M05 A3011 RMK A01 T00321052  RH  054%=      5-min Rain = 0
KBY1 241023Z 30005KT 03/M05 A3011 RMK A01 T00311053  RH  054%=      5-min Rain = 0
KBY1 241024Z 30005KT 03/M05 A3011 RMK A01 T00311053  RH  054%=      5-min Rain = 0
KBY1 241025Z 32005KT 03/M05 A3011 RMK A01 T00301052  RH  055%=      5-min Rain = 0
KBY1 241026Z 31006KT 03/M05 A3011 RMK A01 T00301053  RH  054%=      5-min Rain = 0
KBY1 241027Z 31006KT 03/M05 A3011 RMK A01 T00301053  RH  054%=      5-min Rain = 0
KBY1 241028Z 31006KT 03/M05 A3011 RMK A01 T00291054  RH  054%=      5-min Rain = 0
KBY1 241029Z 30006KT 03/M05 A3011 RMK A01 T00281054  RH  055%=      5-min Rain = 0
KBY1 241030Z 31006KT 03/M06 A3011 RMK A01 T00281055  RH  055%=      5-min Rain = 0
KBY1 241031Z 32005KT 03/M05 A3011 RMK A01 T00281054  RH  055%=      5-min Rain = 0
KBY1 241032Z 32004KT 03/M06 A3011 RMK A01 T00281055  RH  055%=      5-min Rain = 0
KBY1 241033Z 31006KT 03/M06 A3011 RMK A01 T00261055  RH  055%=      5-min Rain = 0
KBY1 241034Z 30007KT 03/M06 A3011 RMK A01 T00261055  RH  055%=      5-min Rain = 0
KBY1 241035Z 30007KT 03/M05 A3011 RMK A01 T00291054  RH  054%=      5-min Rain = 0
KBY1 241036Z 33006KT 03/M05 A3011 RMK A01 T00301054  RH  054%=      5-min Rain = 0
KBY1 241037Z 32007KT 03/M06 A3011 RMK A01 T00301055  RH  054%=      5-min Rain = 0
KBY1 241038Z 30005KT 03/M06 A3011 RMK A01 T00291055  RH  054%=      5-min Rain = 0
KBY1 241039Z 32005KT 03/M06 A3011 RMK A01 T00291056  RH  054%=      5-min Rain = 0
KBY1 241040Z 31006KT 03/M06 A3011 RMK A01 T00281056  RH  054%=      5-min Rain = 0
KBY1 241041Z 31005KT 03/M06 A3011 RMK A01 T00281056  RH  054%=      5-min Rain = 0
KBY1 241042Z 32007KT 03/M06 A3011 RMK A01 T00281056  RH  054%=      5-min Rain = 0
KBY1 241043Z 32007KT 03/M06 A3011 RMK A01 T00271056  RH  054%=      5-min Rain = 0
KBY1 241044Z 30004KT 03/M06 A3011 RMK A01 T00281058  RH  053%=      5-min Rain = 0
KBY1 241045Z 32005KT 03/M06 A3011 RMK A01 T00301060  RH  052%=      5-min Rain = 0
KBY1 241046Z 31004KT 03/M06 A3011 RMK A01 T00311059  RH  052%=      5-min Rain = 0
KBY1 241047Z 32006KT 03/M06 A3011 RMK A01 T00301058  RH  052%=      5-min Rain = 0
KBY1 241048Z 33005KT 03/M06 A3011 RMK A01 T00291058  RH  053%=      5-min Rain = 0
KBY1 241049Z 32006KT 03/M06 A3011 RMK A01 T00271059  RH  053%=      5-min Rain = 0
KBY1 241050Z 33006KT 03/M06 A3011 RMK A01 T00261058  RH  054%=      5-min Rain = 0
KBY1 241051Z 32005KT 03/M06 A3011 RMK A01 T00261059  RH  054%=      5-min Rain = 0
KBY1 241052Z 30006KT 03/M06 A3011 RMK A01 T00261059  RH  054%=      5-min Rain = 0
KBY1 241053Z 32006KT 03/M06 A3012 RMK A01 T00261058  RH  054%=      5-min Rain = 0
KBY1 241054Z 30005KT 03/M06 A3012 RMK A01 T00271059  RH  053%=      5-min Rain = 0
KBY1 241055Z 31005KT 03/M06 A3012 RMK A01 T00281059  RH  053%=      5-min Rain = 0
KBY1 241056Z 34006KT 03/M06 A3012 RMK A01 T00281059  RH  053%=      5-min Rain = 0
KBY1 241057Z 30006KT 03/M06 A3012 RMK A01 T00281059  RH  053%=      5-min Rain = 0
KBY1 241058Z 30005KT 03/M06 A3012 RMK A01 T00271058  RH  053%=      5-min Rain = 0
KBY1 241059Z 29005KT 03/M06 A3012 RMK A01 T00261057  RH  054%=      5-min Rain = 0
KBY1 241100Z 27005KT 03/M06 A3012 RMK A01 T00251058  RH  054%=      5-min Rain = 0
KBY1 241101Z 28006KT 02/M06 A3012 RMK A01 T00241059  RH  054%=      5-min Rain = 0
KBY1 241102Z 27005KT 02/M06 A3013 RMK A01 T00241058  RH  055%=      5-min Rain = 0
KBY1 241103Z 28005KT 02/M06 A3013 RMK A01 T00231058  RH  055%=      5-min Rain = 0
KBY1 241104Z 29006KT 02/M06 A3013 RMK A01 T00231058  RH  055%=      5-min Rain = 0
KBY1 241105Z 29004KT 02/M06 A3013 RMK A01 T00231058  RH  055%=      5-min Rain = 0
KBY1 241106Z 29006KT 02/M06 A3013 RMK A01 T00221058  RH  055%=      5-min Rain = 0
KBY1 241107Z 29006KT 02/M06 A3013 RMK A01 T00221058  RH  056%=      5-min Rain = 0
KBY1 241108Z 28005KT 02/M06 A3013 RMK A01 T00211058  RH  056%=      5-min Rain = 0
KBY1 241109Z 29005KT 02/M06 A3013 RMK A01 T00211058  RH  056%=      5-min Rain = 0
KBY1 241110Z 29006KT 02/M06 A3013 RMK A01 T00201058  RH  056%=      5-min Rain = 0
KBY1 241111Z 29006KT 02/M06 A3013 RMK A01 T00211058  RH  056%=      5-min Rain = 0
KBY1 241112Z 29005KT 02/M06 A3013 RMK A01 T00211058  RH  056%=      5-min Rain = 0
KBY1 241113Z 29004KT 02/M06 A3013 RMK A01 T00201059  RH  056%=      5-min Rain = 0
KBY1 241114Z 28007KT 02/M06 A3013 RMK A01 T00191059  RH  057%=      5-min Rain = 0
KBY1 241115Z 29007KT 02/M06 A3013 RMK A01 T00181059  RH  057%=      5-min Rain = 0
KBY1 241116Z 29005KT 02/M06 A3013 RMK A01 T00181059  RH  056%=      5-min Rain = 0
KBY1 241117Z 29006KT 02/M06 A3013 RMK A01 T00181060  RH  056%=      5-min Rain = 0
KBY1 241118Z 29005KT 02/M06 A3013 RMK A01 T00181060  RH  056%=      5-min Rain = 0
KBY1 241119Z 29004KT 02/M06 A3013 RMK A01 T00161061  RH  057%=      5-min Rain = 0
KBY1 241120Z 29004KT 02/M06 A3014 RMK A01 T00151061  RH  057%=      5-min Rain = 0
KBY1 241121Z 29006KT 01/M06 A3014 RMK A01 T00141061  RH  057%=      5-min Rain = 0
KBY1 241122Z 30006KT 01/M06 A3014 RMK A01 T00141061  RH  057%=      5-min Rain = 0
KBY1 241123Z 31005KT 02/M06 A3014 RMK A01 T00151061  RH  057%=      5-min Rain = 0
KBY1 241124Z 30006KT 01/M06 A3014 RMK A01 T00131062  RH  057%=      5-min Rain = 0
KBY1 241125Z 30006KT 01/M06 A3013 RMK A01 T00141061  RH  058%=      5-min Rain = 0
KBY1 241126Z 31007KT 02/M06 A3014 RMK A01 T00161060  RH  057%=      5-min Rain = 0
KBY1 241127Z 30007KT 02/M06 A3014 RMK A01 T00161060  RH  057%=      5-min Rain = 0
KBY1 241128Z 31008KT 02/M06 A3014 RMK A01 T00161061  RH  057%=      5-min Rain = 0
KBY1 241129Z 30006KT 02/M06 A3014 RMK A01 T00161061  RH  057%=      5-min Rain = 0
KBY1 241130Z 29005KT 02/M06 A3014 RMK A01 T00171060  RH  057%=      5-min Rain = 0
KBY1 241131Z 30006KT 02/M06 A3014 RMK A01 T00171060  RH  057%=      5-min Rain = 0
KBY1 241132Z 29007KT 02/M06 A3014 RMK A01 T00161061  RH  057%=      5-min Rain = 0
KBY1 241133Z 29006KT 02/M06 A3015 RMK A01 T00151061  RH  057%=      5-min Rain = 0
KBY1 241134Z 30006KT 02/M06 A3015 RMK A01 T00151061  RH  057%=      5-min Rain = 0
KBY1 241135Z 29006KT 01/M06 A3015 RMK A01 T00141061  RH  057%=      5-min Rain = 0
KBY1 241136Z 30005KT 01/M06 A3015 RMK A01 T00131062  RH  058%=      5-min Rain = 0
KBY1 241137Z 29006KT 01/M06 A3015 RMK A01 T00111062  RH  058%=      5-min Rain = 0
KBY1 241138Z 30006KT 01/M06 A3015 RMK A01 T00101062  RH  059%=      5-min Rain = 0
KBY1 241139Z 29006KT 01/M06 A3015 RMK A01 T00111060  RH  059%=      5-min Rain = 0
KBY1 241140Z 29005KT 01/M06 A3015 RMK A01 T00101061  RH  059%=      5-min Rain = 0
KBY1 241141Z 29006KT 01/M06 A3015 RMK A01 T00101061  RH  059%=      5-min Rain = 0
KBY1 241142Z 30005KT 01/M06 A3015 RMK A01 T00101060  RH  059%=      5-min Rain = 0
KBY1 241143Z 30006KT 01/M06 A3015 RMK A01 T00101061  RH  059%=      5-min Rain = 0
KBY1 241144Z 30006KT 01/M06 A3015 RMK A01 T00101061  RH  059%=      5-min Rain = 0
KBY1 241145Z 29005KT 01/M06 A3015 RMK A01 T00101061  RH  059%=      5-min Rain = 0
KBY1 241146Z 30005KT 01/M06 A3016 RMK A01 T00091062  RH  059%=      5-min Rain = 0
KBY1 241147Z 30004KT 01/M06 A3016 RMK A01 T00091061  RH  059%=      5-min Rain = 0
KBY1 241148Z 30004KT 01/M06 A3016 RMK A01 T00091062  RH  059%=      5-min Rain = 0
KBY1 241149Z 30004KT 01/M06 A3016 RMK A01 T00071063  RH  060%=      5-min Rain = 0
KBY1 241150Z 31004KT 01/M06 A3016 RMK A01 T00061063  RH  060%=      5-min Rain = 0
KBY1 241151Z 30005KT 00/M07 A3016 RMK A01 T00041065  RH  060%=      5-min Rain = 0
KBY1 241152Z 30005KT 00/M07 A3016 RMK A01 T00011067  RH  060%=      5-min Rain = 0
KBY1 241153Z 30005KT 00/06 A3016 RMK A01 T00000-64  RH  062%=      5-min Rain = 0
KBY1 241154Z 30005KT 00/M06 A3016 RMK A01 T00021062  RH  062%=      5-min Rain = 0
KBY1 241155Z 30005KT 00/M06 A3016 RMK A01 T00031062  RH  062%=      5-min Rain = 0
KBY1 241156Z 30006KT 00/M06 A3016 RMK A01 T00041062  RH  061%=      5-min Rain = 0
KBY1 241157Z 30006KT 00/M06 A3016 RMK A01 T00041062  RH  061%=      5-min Rain = 0
KBY1 241158Z 29005KT 01/M06 A3016 RMK A01 T00051063  RH  061%=      5-min Rain = 0
KBY1 241159Z 30005KT 01/M06 A3016 RMK A01 T00051062  RH  061%=      5-min Rain = 0
KBY1 241200Z 31005KT 01/M06 A3016 RMK A01 T00051063  RH  060%=      5-min Rain = 0
KBY1 241201Z 30005KT 00/M06 A3016 RMK A01 T00041064  RH  060%=      5-min Rain = 0
KBY1 241202Z 30005KT 00/M07 A3016 RMK A01 T00031065  RH  060%=      5-min Rain = 0
KBY1 241203Z 30005KT 00/M06 A3016 RMK A01 T00021064  RH  061%=      5-min Rain = 0
KBY1 241204Z 30004KT 00/M06 A3016 RMK A01 T00021064  RH  061%=      5-min Rain = 0
KBY1 241205Z 30005KT 00/M06 A3016 RMK A01 T00031063  RH  061%=      5-min Rain = 0
KBY1 241206Z 30005KT 00/M06 A3016 RMK A01 T00021064  RH  061%=      5-min Rain = 0
KBY1 241207Z 31005KT 00/M06 A3016 RMK A01 T00021063  RH  061%=      5-min Rain = 0
KBY1 241208Z 31005KT 00/M06 A3016 RMK A01 T00021064  RH  061%=      5-min Rain = 0
KBY1 241209Z 31005KT 00/M06 A3017 RMK A01 T00021064  RH  061%=      5-min Rain = 0
KBY1 241210Z 30005KT 00/M06 A3017 RMK A01 T00021064  RH  061%=      5-min Rain = 0
KBY1 241211Z 31005KT 00/M06 A3017 RMK A01 T00031064  RH  061%=      5-min Rain = 0
KBY1 241212Z 31005KT 00/M06 A3017 RMK A01 T00041064  RH  060%=      5-min Rain = 0
KBY1 241213Z 31005KT 00/M06 A3017 RMK A01 T00041064  RH  060%=      5-min Rain = 0
KBY1 241214Z 31005KT 00/M06 A3017 RMK A01 T00041064  RH  060%=      5-min Rain = 0
KBY1 241215Z 32004KT 00/M07 A3017 RMK A01 T00031065  RH  060%=      5-min Rain = 0
KBY1 241216Z 33006KT 00/M07 A3017 RMK A01 T00031066  RH  060%=      5-min Rain = 0
KBY1 241217Z 33005KT 00/M07 A3017 RMK A01 T00031066  RH  060%=      5-min Rain = 0
KBY1 241218Z 31005KT 00/M07 A3017 RMK A01 T00041066  RH  059%=      5-min Rain = 0
KBY1 241219Z 30004KT 01/M07 A3017 RMK A01 T00061065  RH  059%=      5-min Rain = 0
KBY1 241220Z 30004KT 01/M06 A3017 RMK A01 T00061064  RH  059%=      5-min Rain = 0
KBY1 241221Z 31004KT 01/M07 A3017 RMK A01 T00061065  RH  059%=      5-min Rain = 0
KBY1 241222Z 32003KT 00/M07 A3018 RMK A01 T00041066  RH  059%=      5-min Rain = 0
KBY1 241223Z 33004KT 00/M07 A3018 RMK A01 T00041066  RH  059%=      5-min Rain = 0
KBY1 241224Z 31003KT 00/M07 A3018 RMK A01 T00031067  RH  059%=      5-min Rain = 0
KBY1 241225Z 30004KT 00/M07 A3018 RMK A01 T00031067  RH  059%=      5-min Rain = 0
KBY1 241226Z 31004KT 00/M07 A3018 RMK A01 T00021068  RH  060%=      5-min Rain = 0
KBY1 241227Z 31004KT 00/M07 A3018 RMK A01 T00011068  RH  060%=      5-min Rain = 0
KBY1 241228Z 31003KT M00/M07 A3018 RMK A01 T10011069  RH  060%=      5-min Rain = 0
KBY1 241229Z 30003KT M00/M07 A3018 RMK A01 T10021068  RH  061%=      5-min Rain = 0
KBY1 241230Z 31004KT M00/M07 A3018 RMK A01 T10041069  RH  061%=      5-min Rain = 0
KBY1 241231Z 30004KT M00/M07 A3018 RMK A01 T10041069  RH  062%=      5-min Rain = 0
KBY1 241232Z 31004KT M00/M07 A3018 RMK A01 T10041068  RH  062%=      5-min Rain = 0
KBY1 241233Z 31004KT M01/M07 A3018 RMK A01 T10051069  RH  062%=      5-min Rain = 0
KBY1 241234Z 31004KT M01/M07 A3018 RMK A01 T10071070  RH  062%=      5-min Rain = 0
KBY1 241235Z 31005KT M01/M07 A3018 RMK A01 T10071069  RH  063%=      5-min Rain = 0
KBY1 241236Z 32005KT M01/M07 A3018 RMK A01 T10071069  RH  063%=      5-min Rain = 0
KBY1 241237Z 31005KT M01/M07 A3018 RMK A01 T10071069  RH  063%=      5-min Rain = 0
KBY1 241238Z 31006KT M01/M07 A3018 RMK A01 T10061069  RH  062%=      5-min Rain = 0
KBY1 241239Z 31006KT M00/M07 A3018 RMK A01 T10031067  RH  062%=      5-min Rain = 0
KBY1 241240Z 31006KT M00/M07 A3018 RMK A01 T10011067  RH  061%=      5-min Rain = 0
KBY1 241241Z 31006KT 00/07 A3018 RMK A01 T00-00-68  RH  060%=      5-min Rain = 0
KBY1 241242Z 31003KT 00/M07 A3018 RMK A01 T00011068  RH  060%=      5-min Rain = 0
KBY1 241243Z 31004KT 00/07 A3018 RMK A01 T00-00-69  RH  060%=      5-min Rain = 0
KBY1 241244Z 31004KT M00/M07 A3018 RMK A01 T10011070  RH  060%=      5-min Rain = 0
KBY1 241245Z 32005KT M00/M07 A3018 RMK A01 T10011069  RH  060%=      5-min Rain = 0
KBY1 241246Z 31005KT M00/M07 A3018 RMK A01 T10011069  RH  060%=      5-min Rain = 0
KBY1 241247Z 31006KT 00/07 A3018 RMK A01 T00-00-69  RH  060%=      5-min Rain = 0
KBY1 241248Z 32006KT 00/07 A3019 RMK A01 T00000-69  RH  060%=      5-min Rain = 0
KBY1 241249Z 31004KT 00/07 A3019 RMK A01 T00000-70  RH  059%=      5-min Rain = 0
KBY1 241250Z 32005KT 00/M07 A3019 RMK A01 T00011070  RH  059%=      5-min Rain = 0
KBY1 241251Z 32004KT 00/M07 A3019 RMK A01 T00011070  RH  059%=      5-min Rain = 0
KBY1 241252Z 31005KT 00/07 A3019 RMK A01 T00000-70  RH  059%=      5-min Rain = 0
KBY1 241253Z 31006KT 00/07 A3019 RMK A01 T00-00-71  RH  059%=      5-min Rain = 0
KBY1 241254Z 30005KT M00/M07 A3019 RMK A01 T10011071  RH  059%=      5-min Rain = 0
KBY1 241255Z 30005KT M00/M07 A3019 RMK A01 T10011071  RH  059%=      5-min Rain = 0
KBY1 241256Z 30005KT 00/07 A3019 RMK A01 T00-00-70  RH  059%=      5-min Rain = 0
KBY1 241257Z 30005KT M00/M07 A3019 RMK A01 T10011071  RH  059%=      5-min Rain = 0
KBY1 241258Z 30005KT M00/M07 A3019 RMK A01 T10011070  RH  059%=      5-min Rain = 0
KBY1 241259Z 30005KT 00/07 A3019 RMK A01 T00-00-70  RH  059%=      5-min Rain = 0
KBY1 241300Z 32004KT M00/M07 A3019 RMK A01 T10011070  RH  059%=      5-min Rain = 0
KBY1 241301Z 32003KT M00/M07 A3019 RMK A01 T10031072  RH  060%=      5-min Rain = 0
KBY1 241302Z 33006KT M01/M07 A3019 RMK A01 T10051073  RH  060%=      5-min Rain = 0
KBY1 241303Z 33006KT M01/M07 A3019 RMK A01 T10061072  RH  061%=      5-min Rain = 0
KBY1 241304Z 32005KT M01/M07 A3019 RMK A01 T10061071  RH  061%=      5-min Rain = 0
KBY1 241305Z 32006KT M01/M07 A3019 RMK A01 T10051071  RH  061%=      5-min Rain = 0
KBY1 241306Z 32005KT M00/M07 A3019 RMK A01 T10041069  RH  061%=      5-min Rain = 0
KBY1 241307Z 33004KT M00/M07 A3019 RMK A01 T10021069  RH  061%=      5-min Rain = 0
KBY1 241308Z 33005KT M00/M07 A3019 RMK A01 T10011070  RH  060%=      5-min Rain = 0
KBY1 241309Z 33005KT M00/M07 A3019 RMK A01 T10011070  RH  060%=      5-min Rain = 0
KBY1 241310Z 32005KT M00/M07 A3019 RMK A01 T10011069  RH  060%=      5-min Rain = 0
KBY1 241311Z 32005KT M00/M07 A3019 RMK A01 T10011069  RH  060%=      5-min Rain = 0
KBY1 241312Z 32006KT 00/07 A3019 RMK A01 T00-00-70  RH  059%=      5-min Rain = 0
KBY1 241313Z 31006KT 00/07 A3019 RMK A01 T00000-71  RH  059%=      5-min Rain = 0
KBY1 241314Z 32006KT 00/07 A3019 RMK A01 T00000-71  RH  059%=      5-min Rain = 0
KBY1 241315Z 32006KT 00/07 A302 RMK A01 T00000-71  RH  059%=      5-min Rain = 0
KBY1 241316Z 31007KT 00/07 A302 RMK A01 T00-00-71  RH  059%=      5-min Rain = 0
KBY1 241317Z 31006KT M00/M07 A302 RMK A01 T10011072  RH  059%=      5-min Rain = 0
KBY1 241318Z 31007KT M00/M07 A302 RMK A01 T10021072  RH  059%=      5-min Rain = 0
KBY1 241319Z 31006KT M00/M07 A302 RMK A01 T10031072  RH  059%=      5-min Rain = 0
KBY1 241320Z 31007KT M00/M07 A302 RMK A01 T10031072  RH  060%=      5-min Rain = 0
KBY1 241321Z 31006KT M00/M07 A302 RMK A01 T10031072  RH  060%=      5-min Rain = 0
KBY1 241322Z 32005KT M00/M07 A302 RMK A01 T10031072  RH  060%=      5-min Rain = 0
KBY1 241323Z 32005KT M00/M07 A302 RMK A01 T10031072  RH  060%=      5-min Rain = 0
KBY1 241324Z 32005KT M00/M07 A302 RMK A01 T10031071  RH  060%=      5-min Rain = 0
KBY1 241325Z 32006KT M00/M07 A302 RMK A01 T10041072  RH  060%=      5-min Rain = 0
KBY1 241326Z 32005KT M00/M07 A302 RMK A01 T10041071  RH  060%=      5-min Rain = 0
KBY1 241327Z 32005KT M00/M07 A302 RMK A01 T10031071  RH  060%=      5-min Rain = 0
KBY1 241328Z 31006KT M00/M07 A302 RMK A01 T10031071  RH  060%=      5-min Rain = 0
KBY1 241329Z 31006KT M00/M07 A3021 RMK A01 T10031072  RH  060%=      5-min Rain = 0
KBY1 241330Z 31005KT M00/M07 A3021 RMK A01 T10031072  RH  059%=      5-min Rain = 0
KBY1 241331Z 30006KT M00/M07 A3021 RMK A01 T10031072  RH  060%=      5-min Rain = 0
KBY1 241332Z 31006KT M00/M07 A3021 RMK A01 T10031072  RH  060%=      5-min Rain = 0
KBY1 241333Z 31005KT M00/M07 A3021 RMK A01 T10041072  RH  060%=      5-min Rain = 0
KBY1 241334Z 32004KT M00/M07 A3021 RMK A01 T10041072  RH  060%=      5-min Rain = 0
KBY1 241335Z 31004KT M00/M07 A3021 RMK A01 T10031071  RH  060%=      5-min Rain = 0
KBY1 241336Z 31004KT M00/M07 A3021 RMK A01 T10031071  RH  060%=      5-min Rain = 0
KBY1 241337Z 32004KT M00/M07 A3021 RMK A01 T10031071  RH  060%=      5-min Rain = 0
KBY1 241338Z 32004KT M00/M07 A3021 RMK A01 T10031072  RH  060%=      5-min Rain = 0
KBY1 241339Z 33003KT M00/M07 A3021 RMK A01 T10031072  RH  060%=      5-min Rain = 0
KBY1 241340Z 33004KT M00/M07 A3021 RMK A01 T10031071  RH  060%=      5-min Rain = 0
KBY1 241341Z 32004KT M00/M07 A3021 RMK A01 T10031071  RH  060%=      5-min Rain = 0
KBY1 241342Z 31003KT M00/M07 A3021 RMK A01 T10031071  RH  060%=      5-min Rain = 0
KBY1 241343Z 31003KT M00/M07 A3021 RMK A01 T10031071  RH  060%=      5-min Rain = 0
KBY1 241344Z 31004KT M00/M07 A3021 RMK A01 T10021071  RH  060%=      5-min Rain = 0
KBY1 241345Z 31004KT M00/M07 A3021 RMK A01 T10031072  RH  059%=      5-min Rain = 0
KBY1 241346Z 29003KT M00/M07 A3021 RMK A01 T10021072  RH  059%=      5-min Rain = 0
KBY1 241347Z 28003KT M00/M07 A3022 RMK A01 T10031072  RH  060%=      5-min Rain = 0
KBY1 241348Z 28003KT M00/M07 A3022 RMK A01 T10041072  RH  060%=      5-min Rain = 0
KBY1 241349Z 29004KT M00/M07 A3022 RMK A01 T10041072  RH  060%=      5-min Rain = 0
KBY1 241350Z 29003KT M01/M07 A3022 RMK A01 T10051072  RH  061%=      5-min Rain = 0
KBY1 241351Z 29003KT M01/M07 A3022 RMK A01 T10051072  RH  061%=      5-min Rain = 0
KBY1 241352Z 29002KT M01/M07 A3022 RMK A01 T10051072  RH  061%=      5-min Rain = 0
KBY1 241353Z 30002KT M01/M07 A3022 RMK A01 T10051072  RH  061%=      5-min Rain = 0
KBY1 241354Z 30002KT M00/M07 A3022 RMK A01 T10041072  RH  060%=      5-min Rain = 0
KBY1 241355Z 31003KT M00/M07 A3022 RMK A01 T10041071  RH  060%=      5-min Rain = 0
KBY1 241356Z 33002KT M00/M07 A3022 RMK A01 T10031071  RH  060%=      5-min Rain = 0
KBY1 241357Z 33002KT M00/M07 A3022 RMK A01 T10021071  RH  060%=      5-min Rain = 0
KBY1 241358Z 33002KT M00/M07 A3022 RMK A01 T10011070  RH  060%=      5-min Rain = 0
KBY1 241359Z 34002KT 00/M07 A3022 RMK A01 T00011069  RH  059%=      5-min Rain = 0
KBY1 241400Z 33003KT 00/M07 A3022 RMK A01 T00021070  RH  059%=      5-min Rain = 0
KBY1 241401Z 34003KT 00/M07 A3022 RMK A01 T00021070  RH  058%=      5-min Rain = 0
KBY1 241402Z 34004KT 00/M07 A3022 RMK A01 T00021070  RH  058%=      5-min Rain = 0
KBY1 241403Z 33004KT 00/M07 A3022 RMK A01 T00021070  RH  058%=      5-min Rain = 0
KBY1 241404Z 34003KT 00/M07 A3022 RMK A01 T00031070  RH  058%=      5-min Rain = 0
KBY1 241405Z 33003KT 00/M07 A3022 RMK A01 T00031070  RH  058%=      5-min Rain = 0
KBY1 241406Z 33004KT 00/M07 A3023 RMK A01 T00041069  RH  058%=      5-min Rain = 0
KBY1 241407Z 33005KT 00/M07 A3023 RMK A01 T00041069  RH  058%=      5-min Rain = 0
KBY1 241408Z 34005KT 01/M07 A3023 RMK A01 T00051070  RH  057%=      5-min Rain = 0
KBY1 241409Z 34005KT 01/M07 A3023 RMK A01 T00061070  RH  057%=      5-min Rain = 0
KBY1 241410Z 34004KT 01/M07 A3023 RMK A01 T00071070  RH  056%=      5-min Rain = 0
KBY1 241411Z 34005KT 01/M07 A3023 RMK A01 T00081070  RH  056%=      5-min Rain = 0
KBY1 241412Z 34005KT 01/M07 A3023 RMK A01 T00081071  RH  056%=      5-min Rain = 0
KBY1 241413Z 35003KT 01/M07 A3023 RMK A01 T00091070  RH  056%=      5-min Rain = 0
KBY1 241414Z 34004KT 01/M07 A3023 RMK A01 T00101069  RH  056%=      5-min Rain = 0
KBY1 241415Z 33007KT 01/M07 A3023 RMK A01 T00111069  RH  055%=      5-min Rain = 0
KBY1 241416Z 33006KT 01/M07 A3023 RMK A01 T00111070  RH  055%=      5-min Rain = 0
KBY1 241417Z 34006KT 01/M07 A3023 RMK A01 T00111070  RH  055%=      5-min Rain = 0
KBY1 241418Z 34005KT 01/M07 A3023 RMK A01 T00111070  RH  055%=      5-min Rain = 0
KBY1 241419Z 33007KT 01/M07 A3023 RMK A01 T00121070  RH  054%=      5-min Rain = 0
KBY1 241420Z 34007KT 01/M07 A3023 RMK A01 T00121071  RH  054%=      5-min Rain = 0
KBY1 241421Z 34006KT 01/M07 A3023 RMK A01 T00121070  RH  054%=      5-min Rain = 0
KBY1 241422Z 35008KT 01/M07 A3023 RMK A01 T00131070  RH  054%=      5-min Rain = 0
KBY1 241423Z 34007KT 01/M07 A3023 RMK A01 T00141070  RH  054%=      5-min Rain = 0
KBY1 241424Z 34008KT 01/M07 A3023 RMK A01 T00141071  RH  053%=      5-min Rain = 0
KBY1 241425Z 34009KT 01/M07 A3023 RMK A01 T00141072  RH  053%=      5-min Rain = 0
KBY1 241426Z 35007KT 02/M07 A3023 RMK A01 T00151071  RH  053%=      5-min Rain = 0
KBY1 241427Z 35006KT 02/M07 A3023 RMK A01 T00161069  RH  053%=      5-min Rain = 0
KBY1 241428Z 35007KT 02/M07 A3023 RMK A01 T00171068  RH  053%=      5-min Rain = 0
KBY1 241429Z 36007KT 02/M07 A3023 RMK A01 T00181069  RH  053%=      5-min Rain = 0
KBY1 241430Z 35007KT 02/M07 A3023 RMK A01 T00181069  RH  052%=      5-min Rain = 0
KBY1 241431Z 35007KT 02/M07 A3023 RMK A01 T00181070  RH  052%=      5-min Rain = 0
KBY1 241432Z 35008KT 02/M07 A3023 RMK A01 T00191071  RH  051%=      5-min Rain = 0
KBY1 241433Z 35007KT 02/M07 A3024 RMK A01 T00201070  RH  051%=      5-min Rain = 0
KBY1 241434Z 35007KT 02/M07 A3024 RMK A01 T00201070  RH  051%=      5-min Rain = 0
KBY1 241435Z 35008KT 02/M07 A3024 RMK A01 T00211069  RH  051%=      5-min Rain = 0
KBY1 241436Z 00008KT 02/M07 A3024 RMK A01 T00211070  RH  051%=      5-min Rain = 0
KBY1 241437Z 00009KT 02/M07 A3024 RMK A01 T00211070  RH  051%=      5-min Rain = 0
KBY1 241438Z 36009KT 02/M07 A3024 RMK A01 T00211071  RH  050%=      5-min Rain = 0
KBY1 241439Z 00006KT 02/M07 A3024 RMK A01 T00211072  RH  050%=      5-min Rain = 0
KBY1 241440Z 35008KT 02/M07 A3024 RMK A01 T00221070  RH  050%=      5-min Rain = 0
KBY1 241441Z 36010KT 02/M07 A3024 RMK A01 T00241070  RH  050%=      5-min Rain = 0
KBY1 241442Z 36007KT 02/M07 A3024 RMK A01 T00241071  RH  049%=      5-min Rain = 0
KBY1 241443Z 00008KT 03/M07 A3024 RMK A01 T00251070  RH  049%=      5-min Rain = 0
KBY1 241444Z 36008KT 03/M07 A3024 RMK A01 T00261070  RH  049%=      5-min Rain = 0
KBY1 241445Z 00008KT 03/M07 A3024 RMK A01 T00271069  RH  049%=      5-min Rain = 0
KBY1 241446Z 01010KT 03/M07 A3025 RMK A01 T00281069  RH  049%=      5-min Rain = 0
KBY1 241447Z 00012KT 03/M07 A3025 RMK A01 T00281070  RH  048%=      5-min Rain = 0
KBY1 241448Z 00011KT 03/M07 A3025 RMK A01 T00281071  RH  048%=      5-min Rain = 0
KBY1 241449Z 00011KT 03/M07 A3025 RMK A01 T00281070  RH  048%=      5-min Rain = 0
KBY1 241450Z 01011KT 03/M07 A3025 RMK A01 T00291069  RH  048%=      5-min Rain = 0
KBY1 241451Z 01010KT 03/M07 A3025 RMK A01 T00291070  RH  048%=      5-min Rain = 0
KBY1 241452Z 01011G16KT 03/M07 A3025 RMK A01 T00301069  RH  048%=      5-min Rain = 0
KBY1 241453Z 00012KT 03/M07 A3025 RMK A01 T00311069  RH  048%=      5-min Rain = 0
KBY1 241454Z 01012KT 03/M07 A3025 RMK A01 T00311070  RH  048%=      5-min Rain = 0
KBY1 241455Z 01013KT 03/M07 A3025 RMK A01 T00311070  RH  047%=      5-min Rain = 0
KBY1 241456Z 01013KT 03/M07 A3025 RMK A01 T00311071  RH  047%=      5-min Rain = 0
KBY1 241457Z 00012KT 03/M07 A3025 RMK A01 T00311071  RH  047%=      5-min Rain = 0
KBY1 241458Z 01011KT 03/M07 A3025 RMK A01 T00311071  RH  047%=      5-min Rain = 0
KBY1 241459Z 01010G15KT 03/M07 A3025 RMK A01 T00321070  RH  047%=      5-min Rain = 0
KBY1 241500Z 01012G18KT 03/M07 A3025 RMK A01 T00341069  RH  047%=      5-min Rain = 0
KBY1 241501Z 01011KT 03/M07 A3025 RMK A01 T00341070  RH  046%=      5-min Rain = 0
KBY1 241502Z 02010KT 04/M07 A3025 RMK A01 T00351068  RH  047%=      5-min Rain = 0
KBY1 241503Z 01010KT 04/M07 A3025 RMK A01 T00371068  RH  046%=      5-min Rain = 0
KBY1 241504Z 02009KT 04/M07 A3025 RMK A01 T00371068  RH  046%=      5-min Rain = 0
KBY1 241505Z 00010G15KT 04/M07 A3025 RMK A01 T00391067  RH  046%=      5-min Rain = 0
KBY1 241506Z 01011KT 04/M07 A3025 RMK A01 T00401067  RH  045%=      5-min Rain = 0
KBY1 241507Z 02011KT 04/M07 A3025 RMK A01 T00411067  RH  045%=      5-min Rain = 0
KBY1 241508Z 00012KT 04/M07 A3025 RMK A01 T00411068  RH  045%=      5-min Rain = 0
KBY1 241509Z 01013G18KT 04/M07 A3025 RMK A01 T00411068  RH  045%=      5-min Rain = 0
KBY1 241510Z 01013KT 04/M07 A3025 RMK A01 T00401068  RH  045%=      5-min Rain = 0
KBY1 241511Z 02012KT 04/M07 A3025 RMK A01 T00401068  RH  046%=      5-min Rain = 0
KBY1 241512Z 03015KT 04/M07 A3025 RMK A01 T00411067  RH  045%=      5-min Rain = 0
KBY1 241513Z 03013KT 04/M07 A3025 RMK A01 T00411068  RH  045%=      5-min Rain = 0
KBY1 241514Z 02014KT 04/M07 A3025 RMK A01 T00411068  RH  045%=      5-min Rain = 0
KBY1 241515Z 02015KT 04/M07 A3025 RMK A01 T00421068  RH  045%=      5-min Rain = 0
KBY1 241516Z 02015KT 04/M07 A3025 RMK A01 T00421069  RH  044%=      5-min Rain = 0
KBY1 241517Z 02013KT 04/M07 A3025 RMK A01 T00421069  RH  044%=      5-min Rain = 0
KBY1 241518Z 01014KT 04/M07 A3025 RMK A01 T00431068  RH  044%=      5-min Rain = 0
KBY1 241519Z 01013G18KT 04/M07 A3025 RMK A01 T00431069  RH  044%=      5-min Rain = 0
KBY1 241520Z 01016KT 04/M07 A3025 RMK A01 T00421069  RH  044%=      5-min Rain = 0
KBY1 241521Z 03015KT 04/M07 A3025 RMK A01 T00421068  RH  045%=      5-min Rain = 0
KBY1 241522Z 03013KT 04/M07 A3025 RMK A01 T00431067  RH  045%=      5-min Rain = 0
KBY1 241523Z 03012KT 05/M07 A3025 RMK A01 T00451065  RH  045%=      5-min Rain = 0
KBY1 241524Z 02011KT 05/M07 A3025 RMK A01 T00481065  RH  044%=      5-min Rain = 0
KBY1 241525Z 01012KT 05/M07 A3025 RMK A01 T00491065  RH  044%=      5-min Rain = 0
KBY1 241526Z 02015KT 05/M07 A3025 RMK A01 T00481067  RH  043%=      5-min Rain = 0
KBY1 241527Z 02014KT 05/M07 A3025 RMK A01 T00471069  RH  043%=      5-min Rain = 0
KBY1 241528Z 01014G19KT 05/M07 A3025 RMK A01 T00471070  RH  043%=      5-min Rain = 0
KBY1 241529Z 01013KT 05/M07 A3025 RMK A01 T00461071  RH  043%=      5-min Rain = 0
KBY1 241530Z 02014KT 05/M07 A3025 RMK A01 T00471070  RH  042%=      5-min Rain = 0
KBY1 241531Z 01013KT 05/M07 A3025 RMK A01 T00471070  RH  042%=      5-min Rain = 0
KBY1 241532Z 02012KT 05/M07 A3025 RMK A01 T00461071  RH  042%=      5-min Rain = 0
KBY1 241533Z 03012KT 05/M07 A3025 RMK A01 T00471069  RH  043%=      5-min Rain = 0
KBY1 241534Z 03013KT 05/M07 A3025 RMK A01 T00481069  RH  043%=      5-min Rain = 0
KBY1 241535Z 03017KT 05/M07 A3025 RMK A01 T00481068  RH  043%=      5-min Rain = 0
KBY1 241536Z 03013KT 05/M07 A3025 RMK A01 T00481068  RH  043%=      5-min Rain = 0
KBY1 241537Z 03014KT 05/M07 A3025 RMK A01 T00481068  RH  043%=      5-min Rain = 0
KBY1 241538Z 01014KT 05/M07 A3025 RMK A01 T00491069  RH  042%=      5-min Rain = 0
KBY1 241539Z 01013KT 05/M07 A3025 RMK A01 T00491070  RH  042%=      5-min Rain = 0
KBY1 241540Z 01016KT 05/M07 A3025 RMK A01 T00481071  RH  042%=      5-min Rain = 0
KBY1 241541Z 01013KT 05/M07 A3025 RMK A01 T00481071  RH  042%=      5-min Rain = 0
KBY1 241542Z 01014KT 05/M07 A3025 RMK A01 T00471070  RH  042%=      5-min Rain = 0
KBY1 241543Z 02015KT 05/M07 A3025 RMK A01 T00481069  RH  042%=      5-min Rain = 0
KBY1 241544Z 02013KT 05/M07 A3025 RMK A01 T00481069  RH  042%=      5-min Rain = 0
KBY1 241545Z 01013KT 05/M07 A3025 RMK A01 T00501067  RH  042%=      5-min Rain = 0
KBY1 241546Z 01013KT 05/M07 A3025 RMK A01 T00511067  RH  042%=      5-min Rain = 0
KBY1 241547Z 02013G18KT 05/M07 A3025 RMK A01 T00511068  RH  042%=      5-min Rain = 0
KBY1 241548Z 01009KT 05/M07 A3025 RMK A01 T00511068  RH  042%=      5-min Rain = 0
KBY1 241549Z 01012KT 05/M07 A3025 RMK A01 T00521067  RH  042%=      5-min Rain = 0
KBY1 241550Z 03014KT 05/M07 A3025 RMK A01 T00531068  RH  041%=      5-min Rain = 0
KBY1 241551Z 03012KT 05/M07 A3025 RMK A01 T00521069  RH  041%=      5-min Rain = 0
KBY1 241552Z 02013KT 05/M07 A3025 RMK A01 T00521068  RH  042%=      5-min Rain = 0
KBY1 241553Z 01012KT 05/M07 A3025 RMK A01 T00511068  RH  042%=      5-min Rain = 0
KBY1 241554Z 01011KT 05/M07 A3025 RMK A01 T00531067  RH  042%=      5-min Rain = 0
KBY1 241555Z 03013KT 06/M07 A3025 RMK A01 T00551067  RH  041%=      5-min Rain = 0
KBY1 241556Z 03014KT 06/M07 A3025 RMK A01 T00551069  RH  040%=      5-min Rain = 0
KBY1 241557Z 03013KT 06/M07 A3025 RMK A01 T00551069  RH  040%=      5-min Rain = 0
KBY1 241558Z 02010KT 05/M07 A3025 RMK A01 T00541069  RH  041%=      5-min Rain = 0
KBY1 241559Z 01010KT 06/M07 A3025 RMK A01 T00551068  RH  041%=      5-min Rain = 0
KBY1 241600Z 03012KT 06/M07 A3025 RMK A01 T00571067  RH  040%=      5-min Rain = 0
KBY1 241601Z 02012KT 06/M07 A3025 RMK A01 T00581069  RH  040%=      5-min Rain = 0
KBY1 241602Z 02012KT 06/M07 A3025 RMK A01 T00581068  RH  040%=      5-min Rain = 0
KBY1 241603Z 02013KT 06/M07 A3025 RMK A01 T00571069  RH  040%=      5-min Rain = 0
KBY1 241604Z 02014KT 06/M07 A3025 RMK A01 T00581067  RH  040%=      5-min Rain = 0
KBY1 241605Z 02012KT 06/M07 A3025 RMK A01 T00571067  RH  040%=      5-min Rain = 0
KBY1 241606Z 02013KT 06/M07 A3025 RMK A01 T00561068  RH  040%=      5-min Rain = 0
KBY1 241607Z 02012KT 06/M07 A3025 RMK A01 T00561067  RH  041%=      5-min Rain = 0
KBY1 241608Z 02015KT 06/M07 A3025 RMK A01 T00581067  RH  040%=      5-min Rain = 0
KBY1 241609Z 02012G17KT 06/M07 A3025 RMK A01 T00581068  RH  040%=      5-min Rain = 0
KBY1 241610Z 03013KT 06/M07 A3025 RMK A01 T00591067  RH  040%=      5-min Rain = 0
KBY1 241611Z 03011KT 06/M07 A3024 RMK A01 T00571069  RH  040%=      5-min Rain = 0
KBY1 241612Z 02009KT 06/M07 A3024 RMK A01 T00571066  RH  041%=      5-min Rain = 0
KBY1 241613Z 03013KT 06/M07 A3024 RMK A01 T00611065  RH  040%=      5-min Rain = 0
KBY1 241614Z 02013KT 06/M07 A3024 RMK A01 T00601068  RH  039%=      5-min Rain = 0
KBY1 241615Z 02010KT 06/M07 A3024 RMK A01 T00581068  RH  040%=      5-min Rain = 0
KBY1 241616Z 03012KT 06/M07 A3024 RMK A01 T00591067  RH  040%=      5-min Rain = 0
KBY1 241617Z 03011KT 06/M07 A3024 RMK A01 T00591067  RH  040%=      5-min Rain = 0
KBY1 241618Z 03012KT 06/M07 A3024 RMK A01 T00611066  RH  040%=      5-min Rain = 0
KBY1 241619Z 04012KT 06/M07 A3024 RMK A01 T00611067  RH  039%=      5-min Rain = 0
KBY1 241620Z 03013KT 06/M07 A3024 RMK A01 T00601068  RH  039%=      5-min Rain = 0
KBY1 241621Z 03015KT 06/M07 A3024 RMK A01 T00601067  RH  040%=      5-min Rain = 0
KBY1 241622Z 02013KT 06/M07 A3024 RMK A01 T00591069  RH  039%=      5-min Rain = 0
KBY1 241623Z 02012KT 06/M07 A3024 RMK A01 T00591068  RH  040%=      5-min Rain = 0
KBY1 241624Z 01010KT 06/M07 A3024 RMK A01 T00611067  RH  039%=      5-min Rain = 0
KBY1 241625Z 02012G17KT 06/M07 A3024 RMK A01 T00621066  RH  039%=      5-min Rain = 0
KBY1 241626Z 02012KT 06/M07 A3024 RMK A01 T00641066  RH  039%=      5-min Rain = 0
KBY1 241627Z 03010G15KT 07/M07 A3024 RMK A01 T00651068  RH  038%=      5-min Rain = 0
KBY1 241628Z 03014G19KT 07/M07 A3024 RMK A01 T00651067  RH  038%=      5-min Rain = 0
KBY1 241629Z 04012KT 06/M07 A3024 RMK A01 T00641068  RH  038%=      5-min Rain = 0
KBY1 241630Z 03010KT 06/M07 A3024 RMK A01 T00631068  RH  039%=      5-min Rain = 0
KBY1 241631Z 02010KT 06/M07 A3024 RMK A01 T00641066  RH  039%=      5-min Rain = 0
KBY1 241632Z 03011KT 07/M07 A3024 RMK A01 T00661066  RH  038%=      5-min Rain = 0
KBY1 241633Z 04009KT 07/M07 A3024 RMK A01 T00661067  RH  038%=      5-min Rain = 0
KBY1 241634Z 03011KT 07/M07 A3024 RMK A01 T00691066  RH  038%=      5-min Rain = 0
KBY1 241635Z 02010KT 07/M07 A3024 RMK A01 T00681068  RH  037%=      5-min Rain = 0
KBY1 241636Z 02010KT 07/M07 A3024 RMK A01 T00691068  RH  037%=      5-min Rain = 0
KBY1 241637Z 03013KT 07/M07 A3025 RMK A01 T00701069  RH  036%=      5-min Rain = 0
KBY1 241638Z 03008KT 07/M07 A3025 RMK A01 T00691071  RH  036%=      5-min Rain = 0
KBY1 241639Z 05007KT 07/M07 A3025 RMK A01 T00711068  RH  037%=      5-min Rain = 0
KBY1 241640Z 06009KT 07/M07 A3025 RMK A01 T00731068  RH  036%=      5-min Rain = 0
KBY1 241641Z 07009KT 07/M07 A3025 RMK A01 T00721069  RH  036%=      5-min Rain = 0
KBY1 241642Z 06008KT 07/M07 A3025 RMK A01 T00711071  RH  036%=      5-min Rain = 0
KBY1 241643Z 06009KT 07/M07 A3025 RMK A01 T00741066  RH  036%=      5-min Rain = 0
KBY1 241644Z 04010KT 08/M07 A3025 RMK A01 T00751068  RH  035%=      5-min Rain = 0
KBY1 241645Z 05010KT 07/M07 A3025 RMK A01 T00721071  RH  035%=      5-min Rain = 0
KBY1 241646Z 05008KT 07/M07 A3025 RMK A01 T00701071  RH  036%=      5-min Rain = 0
KBY1 241647Z 06007KT 07/M07 A3025 RMK A01 T00701069  RH  036%=      5-min Rain = 0
KBY1 241648Z 05007KT 07/M07 A3025 RMK A01 T00701069  RH  036%=      5-min Rain = 0
KBY1 241649Z 05012KT 07/M07 A3025 RMK A01 T00731067  RH  036%=      5-min Rain = 0
KBY1 241650Z 05008KT 07/M07 A3025 RMK A01 T00741069  RH  036%=      5-min Rain = 0
KBY1 241651Z 05007KT 07/M07 A3025 RMK A01 T00741067  RH  036%=      5-min Rain = 0
KBY1 241652Z 05009KT 07/M07 A3025 RMK A01 T00741068  RH  036%=      5-min Rain = 0
KBY1 241653Z 06009KT 07/M07 A3025 RMK A01 T00731068  RH  036%=      5-min Rain = 0
KBY1 241654Z 05009KT 07/M07 A3025 RMK A01 T00741067  RH  036%=      5-min Rain = 0
KBY1 241655Z 05011KT 07/M07 A3025 RMK A01 T00731069  RH  036%=      5-min Rain = 0
KBY1 241656Z 05010KT 07/M07 A3025 RMK A01 T00731069  RH  036%=      5-min Rain = 0
KBY1 241657Z 04011KT 07/M07 A3025 RMK A01 T00741070  RH  035%=      5-min Rain = 0
KBY1 241658Z 03010KT 07/M07 A3025 RMK A01 T00721072  RH  035%=      5-min Rain = 0
KBY1 241659Z 04005KT 07/M07 A3025 RMK A01 T00701073  RH  035%=      5-min Rain = 0
KBY1 241700Z 02007KT 07/M07 A3025 RMK A01 T00691073  RH  036%=      5-min Rain = 0
KBY1 241701Z 04006KT 07/M07 A3025 RMK A01 T00691073  RH  036%=      5-min Rain = 0
KBY1 241702Z 02006KT 07/M07 A3025 RMK A01 T00701072  RH  036%=      5-min Rain = 0
KBY1 241703Z 01010KT 07/M07 A3025 RMK A01 T00721071  RH  035%=      5-min Rain = 0
KBY1 241704Z 04009KT 07/M07 A3025 RMK A01 T00731073  RH  035%=      5-min Rain = 0
KBY1 241705Z 06010KT 07/M07 A3025 RMK A01 T00731073  RH  035%=      5-min Rain = 0
KBY1 241706Z 04010KT 07/M07 A3025 RMK A01 T00741072  RH  035%=      5-min Rain = 0
KBY1 241707Z 04010KT 08/M08 A3025 RMK A01 T00751075  RH  034%=      5-min Rain = 0
KBY1 241708Z 04007KT 07/M08 A3025 RMK A01 T00731078  RH  033%=      5-min Rain = 0
KBY1 241709Z 04008KT 07/M08 A3025 RMK A01 T00721078  RH  034%=      5-min Rain = 0
KBY1 241710Z 03009KT 07/M08 A3025 RMK A01 T00731077  RH  034%=      5-min Rain = 0
KBY1 241711Z 05011KT 08/M07 A3025 RMK A01 T00781072  RH  034%=      5-min Rain = 0
KBY1 241712Z 05009KT 08/M08 A3025 RMK A01 T00791075  RH  033%=      5-min Rain = 0
KBY1 241713Z 05008KT 08/M08 A3025 RMK A01 T00781077  RH  032%=      5-min Rain = 0
KBY1 241714Z 05008KT 08/M08 A3025 RMK A01 T00761075  RH  033%=      5-min Rain = 0
KBY1 241715Z 04007KT 08/M07 A3025 RMK A01 T00781074  RH  033%=      5-min Rain = 0
KBY1 241716Z 05008KT 08/M07 A3025 RMK A01 T00791073  RH  033%=      5-min Rain = 0
KBY1 241717Z 05012KT 08/M07 A3025 RMK A01 T00811074  RH  033%=      5-min Rain = 0
KBY1 241718Z 05009KT 08/M08 A3025 RMK A01 T00791078  RH  032%=      5-min Rain = 0
KBY1 241719Z 05009KT 08/M08 A3025 RMK A01 T00771076  RH  033%=      5-min Rain = 0
KBY1 241720Z 07008KT 08/M08 A3025 RMK A01 T00791075  RH  033%=      5-min Rain = 0
KBY1 241721Z 08008KT 08/M08 A3024 RMK A01 T00791076  RH  033%=      5-min Rain = 0
KBY1 241722Z 05008KT 08/M08 A3024 RMK A01 T00771075  RH  033%=      5-min Rain = 0
KBY1 241723Z 03011KT 08/M07 A3024 RMK A01 T00771073  RH  034%=      5-min Rain = 0
KBY1 241724Z 02011KT 08/M07 A3025 RMK A01 T00791073  RH  033%=      5-min Rain = 0
KBY1 241725Z 01009KT 08/M07 A3024 RMK A01 T00781074  RH  033%=      5-min Rain = 0
KBY1 241726Z 02010KT 08/M08 A3024 RMK A01 T00781075  RH  033%=      5-min Rain = 0
KBY1 241727Z 03010KT 08/M08 A3024 RMK A01 T00781076  RH  033%=      5-min Rain = 0
KBY1 241728Z 03009KT 08/M08 A3024 RMK A01 T00781077  RH  033%=      5-min Rain = 0
KBY1 241729Z 03008KT 08/M08 A3024 RMK A01 T00781076  RH  033%=      5-min Rain = 0
KBY1 241730Z 06008KT 08/M08 A3024 RMK A01 T00801075  RH  033%=      5-min Rain = 0
KBY1 241731Z 07010KT 08/M07 A3024 RMK A01 T00811074  RH  033%=      5-min Rain = 0
KBY1 241732Z 05006KT 08/M08 A3024 RMK A01 T00821075  RH  032%=      5-min Rain = 0
KBY1 241733Z 04009KT 09/M07 A3024 RMK A01 T00851072  RH  032%=      5-min Rain = 0
KBY1 241734Z 03008KT 09/M08 A3024 RMK A01 T00861075  RH  031%=      5-min Rain = 0
KBY1 241735Z 04010KT 08/M08 A3024 RMK A01 T00841076  RH  031%=      5-min Rain = 0
KBY1 241736Z 06010KT 08/M08 A3024 RMK A01 T00841077  RH  031%=      5-min Rain = 0
KBY1 241737Z 05008KT 08/M08 A3024 RMK A01 T00821078  RH  031%=      5-min Rain = 0
KBY1 241738Z 03007KT 08/M08 A3024 RMK A01 T00831076  RH  032%=      5-min Rain = 0
KBY1 241739Z 06007KT 09/M07 A3024 RMK A01 T00851074  RH  032%=      5-min Rain = 0
KBY1 241740Z 04010KT 09/M07 A3024 RMK A01 T00871074  RH  031%=      5-min Rain = 0
KBY1 241741Z 02009KT 09/M08 A3024 RMK A01 T00861077  RH  031%=      5-min Rain = 0
KBY1 241742Z 36006KT 09/M08 A3024 RMK A01 T00851078  RH  031%=      5-min Rain = 0
KBY1 241743Z 36006KT 09/M08 A3024 RMK A01 T00851078  RH  031%=      5-min Rain = 0
KBY1 241744Z 06006KT 08/M08 A3024 RMK A01 T00831079  RH  031%=      5-min Rain = 0
KBY1 241745Z 06008KT 08/M08 A3024 RMK A01 T00841079  RH  031%=      5-min Rain = 0
KBY1 241746Z 06008KT 09/M08 A3024 RMK A01 T00851080  RH  030%=      5-min Rain = 0
KBY1 241747Z 06005KT 08/M08 A3024 RMK A01 T00841082  RH  030%=      5-min Rain = 0
KBY1 241748Z 04004KT 08/M08 A3024 RMK A01 T00841081  RH  030%=      5-min Rain = 0
KBY1 241749Z 06003KT 09/M08 A3024 RMK A01 T00851082  RH  030%=      5-min Rain = 0
KBY1 241750Z 07006KT 09/M08 A3024 RMK A01 T00871079  RH  030%=      5-min Rain = 0
KBY1 241751Z 05006KT 09/M08 A3024 RMK A01 T00881080  RH  030%=      5-min Rain = 0
KBY1 241752Z 04006KT 09/M08 A3024 RMK A01 T00871079  RH  030%=      5-min Rain = 0
KBY1 241753Z 03009KT 09/M08 A3024 RMK A01 T00901075  RH  030%=      5-min Rain = 0
KBY1 241754Z 03008KT 09/M08 A3024 RMK A01 T00901078  RH  030%=      5-min Rain = 0
KBY1 241755Z 04006KT 09/M08 A3024 RMK A01 T00881078  RH  030%=      5-min Rain = 0
KBY1 241756Z 06006KT 09/M08 A3024 RMK A01 T00891077  RH  030%=      5-min Rain = 0
KBY1 241757Z 10005KT 09/M08 A3024 RMK A01 T00911076  RH  030%=      5-min Rain = 0
KBY1 241758Z 09005KT 09/M08 A3024 RMK A01 T00901079  RH  029%=      5-min Rain = 0
KBY1 241759Z 06009KT 09/M08 A3024 RMK A01 T00881078  RH  030%=      5-min Rain = 0
KBY1 241800Z 06006KT 09/M08 A3024 RMK A01 T00891082  RH  029%=      5-min Rain = 0
KBY1 241801Z 05007KT 09/M08 A3024 RMK A01 T00871084  RH  029%=      5-min Rain = 0
KBY1 241802Z 06006KT 09/M08 A3024 RMK A01 T00871082  RH  029%=      5-min Rain = 0
KBY1 241803Z 06004KT 09/M08 A3024 RMK A01 T00861084  RH  029%=      5-min Rain = 0
KBY1 241804Z 04003KT 09/M08 A3024 RMK A01 T00861082  RH  029%=      5-min Rain = 0
KBY1 241805Z 04001KT 09/M08 A3024 RMK A01 T00851084  RH  029%=      5-min Rain = 0
KBY1 241806Z 06002KT 09/M08 A3024 RMK A01 T00851083  RH  029%=      5-min Rain = 0
KBY1 241807Z 07002KT 09/M08 A3023 RMK A01 T00861083  RH  029%=      5-min Rain = 0
KBY1 241808Z 04005KT 09/M08 A3023 RMK A01 T00881081  RH  030%=      5-min Rain = 0
KBY1 241809Z 05010KT 09/M08 A3023 RMK A01 T00891080  RH  030%=      5-min Rain = 0
KBY1 241810Z 04007KT 09/M08 A3023 RMK A01 T00881080  RH  030%=      5-min Rain = 0
KBY1 241811Z 03006KT 09/M08 A3023 RMK A01 T00891080  RH  029%=      5-min Rain = 0
KBY1 241812Z 06006KT 09/M08 A3023 RMK A01 T00891083  RH  029%=      5-min Rain = 0
KBY1 241813Z 04007KT 09/M09 A3023 RMK A01 T00901086  RH  028%=      5-min Rain = 0
KBY1 241814Z 05007KT 09/M09 A3023 RMK A01 T00891088  RH  028%=      5-min Rain = 0
KBY1 241815Z 06010KT 09/M09 A3023 RMK A01 T00881085  RH  028%=      5-min Rain = 0
KBY1 241816Z 08009KT 09/M08 A3023 RMK A01 T00911084  RH  028%=      5-min Rain = 0
KBY1 241817Z 08010KT 09/M08 A3023 RMK A01 T00921083  RH  028%=      5-min Rain = 0
KBY1 241818Z 09011KT 10/M08 A3023 RMK A01 T00951080  RH  028%=      5-min Rain = 0
KBY1 241819Z 08009KT 09/M08 A3023 RMK A01 T00941083  RH  028%=      5-min Rain = 0
KBY1 241820Z 08008KT 09/M09 A3023 RMK A01 T00921085  RH  028%=      5-min Rain = 0
KBY1 241821Z 07005KT 09/M08 A3023 RMK A01 T00901083  RH  029%=      5-min Rain = 0
KBY1 241822Z 10003KT 09/M08 A3023 RMK A01 T00911081  RH  029%=      5-min Rain = 0
KBY1 241823Z 08002KT 09/M08 A3023 RMK A01 T00921082  RH  028%=      5-min Rain = 0
KBY1 241824Z 05004KT 09/M08 A3023 RMK A01 T00921082  RH  028%=      5-min Rain = 0
KBY1 241825Z 05006KT 09/M08 A3023 RMK A01 T00941081  RH  028%=      5-min Rain = 0
KBY1 241826Z 04004KT 09/M08 A3023 RMK A01 T00941084  RH  027%=      5-min Rain = 0
KBY1 241827Z 05004KT 09/M09 A3022 RMK A01 T00941085  RH  027%=      5-min Rain = 0
KBY1 241828Z 04006KT 10/M09 A3022 RMK A01 T00951085  RH  027%=      5-min Rain = 0
KBY1 241829Z 06009KT 10/M08 A3022 RMK A01 T00961083  RH  027%=      5-min Rain = 0
KBY1 241830Z 06007KT 10/M09 A3022 RMK A01 T00951086  RH  027%=      5-min Rain = 0
KBY1 241831Z 07008KT 10/M08 A3022 RMK A01 T00951083  RH  028%=      5-min Rain = 0
KBY1 241832Z 06007KT 10/M08 A3022 RMK A01 T00951084  RH  027%=      5-min Rain = 0
KBY1 241833Z 06007KT 09/M08 A3022 RMK A01 T00931084  RH  028%=      5-min Rain = 0
KBY1 241834Z 08007KT 09/M08 A3022 RMK A01 T00931083  RH  028%=      5-min Rain = 0
KBY1 241835Z 07011KT 10/M08 A3022 RMK A01 T00951080  RH  028%=      5-min Rain = 0
KBY1 241836Z 06009KT 10/M08 A3022 RMK A01 T00971081  RH  028%=      5-min Rain = 0
KBY1 241837Z 08008KT 10/M08 A3022 RMK A01 T00981082  RH  027%=      5-min Rain = 0
KBY1 241838Z 08004KT 10/M08 A3022 RMK A01 T00961084  RH  027%=      5-min Rain = 0
KBY1 241839Z 02004KT 10/M08 A3021 RMK A01 T00951083  RH  028%=      5-min Rain = 0
KBY1 241840Z 04005G10KT 10/M08 A3021 RMK A01 T00971081  RH  028%=      5-min Rain = 0
KBY1 241841Z 07009KT 10/M08 A3021 RMK A01 T00991081  RH  027%=      5-min Rain = 0
KBY1 241842Z 07009KT 10/M08 A3021 RMK A01 T01031083  RH  026%=      5-min Rain = 0
KBY1 241843Z 05011KT 11/M08 A3021 RMK A01 T01061084  RH  026%=      5-min Rain = 0
KBY1 241844Z 06012KT 10/M09 A3021 RMK A01 T01041086  RH  025%=      5-min Rain = 0
KBY1 241845Z 05005KT 10/M09 A3021 RMK A01 T01001089  RH  025%=      5-min Rain = 0
KBY1 241846Z 07005KT 10/M09 A3021 RMK A01 T00971088  RH  026%=      5-min Rain = 0
KBY1 241847Z 05007G12KT 10/M09 A3021 RMK A01 T00991087  RH  026%=      5-min Rain = 0
KBY1 241848Z 03007KT 10/M09 A3021 RMK A01 T00991090  RH  025%=      5-min Rain = 0
KBY1 241849Z 02008KT 10/M09 A3021 RMK A01 T00991090  RH  025%=      5-min Rain = 0
KBY1 241850Z 04007KT 10/M09 A3021 RMK A01 T01021089  RH  025%=      5-min Rain = 0
KBY1 241851Z 06006KT 11/M09 A3021 RMK A01 T01051085  RH  025%=      5-min Rain = 0
KBY1 241852Z 09007KT 11/M09 A3021 RMK A01 T01061087  RH  025%=      5-min Rain = 0
KBY1 241853Z 08006KT 10/M09 A3021 RMK A01 T01021092  RH  024%=      5-min Rain = 0
KBY1 241854Z 07005KT 10/M09 A3021 RMK A01 T00981092  RH  025%=      5-min Rain = 0
KBY1 241855Z 10006G11KT 10/M09 A302 RMK A01 T01001091  RH  025%=      5-min Rain = 0
KBY1 241856Z 08011KT 10/M09 A3021 RMK A01 T01041094  RH  024%=      5-min Rain = 0
KBY1 241857Z 09011KT 11/M10 A3021 RMK A01 T01061097  RH  023%=      5-min Rain = 0
KBY1 241858Z 08009KT 10/M10 A3021 RMK A01 T01041098  RH  023%=      5-min Rain = 0
KBY1 241859Z 08007KT 10/M10 A302 RMK A01 T01011097  RH  024%=      5-min Rain = 0
KBY1 241900Z 09007KT 10/M10 A302 RMK A01 T01001096  RH  024%=      5-min Rain = 0
KBY1 241901Z 07007KT 10/M09 A302 RMK A01 T01001093  RH  025%=      5-min Rain = 0
KBY1 241902Z 06009KT 10/M09 A302 RMK A01 T01011093  RH  024%=      5-min Rain = 0
KBY1 241903Z 09009KT 10/M10 A302 RMK A01 T01011096  RH  024%=      5-min Rain = 0
KBY1 241904Z 09007KT 10/M10 A302 RMK A01 T01001098  RH  024%=      5-min Rain = 0
KBY1 241905Z 11006KT 10/M10 A302 RMK A01 T01001098  RH  024%=      5-min Rain = 0
KBY1 241906Z 12003KT 10/M10 A302 RMK A01 T01001098  RH  024%=      5-min Rain = 0
KBY1 241907Z 11006KT 10/M10 A302 RMK A01 T01011098  RH  024%=      5-min Rain = 0
KBY1 241908Z 12006KT 10/M10 A302 RMK A01 T01021096  RH  024%=      5-min Rain = 0
KBY1 241909Z 06008KT 10/M09 A302 RMK A01 T01031093  RH  024%=      5-min Rain = 0
KBY1 241910Z 04007KT 11/M10 A302 RMK A01 T01051095  RH  024%=      5-min Rain = 0
KBY1 241911Z 04005KT 10/M10 A302 RMK A01 T01031095  RH  024%=      5-min Rain = 0
KBY1 241912Z 06007KT 11/M09 A302 RMK A01 T01051093  RH  024%=      5-min Rain = 0
KBY1 241913Z 06010KT 10/M10 A302 RMK A01 T01041095  RH  024%=      5-min Rain = 0
KBY1 241914Z 09006KT 11/M09 A302 RMK A01 T01051093  RH  024%=      5-min Rain = 0
KBY1 241915Z 09010KT 11/M09 A302 RMK A01 T01081093  RH  024%=      5-min Rain = 0
KBY1 241916Z 11007KT 11/M09 A302 RMK A01 T01081094  RH  023%=      5-min Rain = 0
KBY1 241917Z 11006KT 11/M10 A3019 RMK A01 T01071096  RH  023%=      5-min Rain = 0
KBY1 241918Z 12007KT 11/M10 A3019 RMK A01 T01061098  RH  023%=      5-min Rain = 0
KBY1 241919Z 10008KT 10/M10 A302 RMK A01 T01041099  RH  023%=      5-min Rain = 0
KBY1 241920Z 10007KT 10/M10 A3019 RMK A01 T01041098  RH  023%=      5-min Rain = 0
KBY1 241921Z 09012KT 11/M10 A302 RMK A01 T01061098  RH  023%=      5-min Rain = 0
KBY1 241922Z 09011KT 11/M10 A3019 RMK A01 T01071098  RH  023%=      5-min Rain = 0
KBY1 241923Z 09011KT 11/M10 A3019 RMK A01 T01091097  RH  023%=      5-min Rain = 0
KBY1 241924Z 08010KT 11/M10 A3019 RMK A01 T01091097  RH  022%=      5-min Rain = 0
KBY1 241925Z 07007KT 11/M10 A3019 RMK A01 T01081100  RH  022%=      5-min Rain = 0
KBY1 241926Z 08006KT 11/M10 A3019 RMK A01 T01051102  RH  022%=      5-min Rain = 0
KBY1 241927Z 08008KT 10/M10 A3019 RMK A01 T01041098  RH  023%=      5-min Rain = 0
KBY1 241928Z 11005KT 10/M10 A3019 RMK A01 T01041096  RH  024%=      5-min Rain = 0
KBY1 241929Z 10007KT 10/M10 A3019 RMK A01 T01031095  RH  024%=      5-min Rain = 0
KBY1 241930Z 09004KT 10/M10 A3019 RMK A01 T01041096  RH  024%=      5-min Rain = 0
KBY1 241931Z 11006KT 10/M10 A3019 RMK A01 T01031096  RH  024%=      5-min Rain = 0
KBY1 241932Z 12012KT 11/M09 A3019 RMK A01 T01051094  RH  024%=      5-min Rain = 0
KBY1 241933Z 07008KT 11/M10 A3019 RMK A01 T01061095  RH  023%=      5-min Rain = 0
KBY1 241934Z 06004KT 11/M10 A3019 RMK A01 T01061096  RH  023%=      5-min Rain = 0
KBY1 241935Z 05003KT 11/M10 A3019 RMK A01 T01051097  RH  023%=      5-min Rain = 0
KBY1 241936Z 08006KT 11/M10 A3019 RMK A01 T01061095  RH  023%=      5-min Rain = 0
KBY1 241937Z 05005KT 11/M10 A3019 RMK A01 T01081097  RH  023%=      5-min Rain = 0
KBY1 241938Z 06009KT 11/M10 A3018 RMK A01 T01091098  RH  022%=      5-min Rain = 0
KBY1 241939Z 04009KT 11/M10 A3018 RMK A01 T01111098  RH  022%=      5-min Rain = 0
KBY1 241940Z 05007KT 11/M10 A3018 RMK A01 T01081102  RH  022%=      5-min Rain = 0
KBY1 241941Z 05010G16KT 11/M10 A3018 RMK A01 T01061103  RH  022%=      5-min Rain = 0
KBY1 241942Z 05009G14KT 11/M10 A3019 RMK A01 T01061102  RH  022%=      5-min Rain = 0
KBY1 241943Z 04008KT 11/M10 A3018 RMK A01 T01051102  RH  022%=      5-min Rain = 0
KBY1 241944Z 02006KT 11/M10 A3018 RMK A01 T01051103  RH  022%=      5-min Rain = 0
KBY1 241945Z 02006KT 11/M10 A3018 RMK A01 T01061100  RH  022%=      5-min Rain = 0
KBY1 241946Z 06009KT 11/M10 A3019 RMK A01 T01101098  RH  022%=      5-min Rain = 0
KBY1 241947Z 07007KT 11/M10 A3019 RMK A01 T01101101  RH  022%=      5-min Rain = 0
KBY1 241948Z 09007KT 11/M10 A3018 RMK A01 T01081102  RH  022%=      5-min Rain = 0
KBY1 241949Z 05010KT 11/M10 A3018 RMK A01 T01091100  RH  022%=      5-min Rain = 0
KBY1 241950Z 05010KT 11/M10 A3018 RMK A01 T01121100  RH  022%=      5-min Rain = 0
KBY1 241951Z 06010KT 11/M10 A3018 RMK A01 T01121102  RH  021%=      5-min Rain = 0
KBY1 241952Z 08009KT 11/M10 A3018 RMK A01 T01111101  RH  021%=      5-min Rain = 0
KBY1 241953Z 09009KT 11/M10 A3018 RMK A01 T01111102  RH  021%=      5-min Rain = 0
KBY1 241954Z 09007KT 11/M10 A3018 RMK A01 T01091104  RH  021%=      5-min Rain = 0
KBY1 241955Z 10004KT 11/M11 A3018 RMK A01 T01071106  RH  021%=      5-min Rain = 0
KBY1 241956Z 10007KT 11/M11 A3018 RMK A01 T01071106  RH  021%=      5-min Rain = 0
KBY1 241957Z 09008KT 11/M11 A3018 RMK A01 T01101105  RH  021%=      5-min Rain = 0
KBY1 241958Z 09009KT 11/M11 A3018 RMK A01 T01111105  RH  021%=      5-min Rain = 0
KBY1 241959Z 08010KT 11/M10 A3018 RMK A01 T01131102  RH  021%=      5-min Rain = 0
KBY1 242000Z 06008KT 11/M11 A3018 RMK A01 T01131105  RH  021%=      5-min Rain = 0
KBY1 242001Z 06008KT 11/M11 A3018 RMK A01 T01111109  RH  020%=      5-min Rain = 0
KBY1 242002Z 08011KT 11/M11 A3018 RMK A01 T01101107  RH  021%=      5-min Rain = 0
KBY1 242003Z 05008KT 11/M11 A3018 RMK A01 T01091107  RH  021%=      5-min Rain = 0
KBY1 242004Z 07010KT 11/M11 A3018 RMK A01 T01101106  RH  021%=      5-min Rain = 0
KBY1 242005Z 08010KT 11/M10 A3018 RMK A01 T01111104  RH  021%=      5-min Rain = 0
KBY1 242006Z 07007KT 11/M10 A3018 RMK A01 T01111103  RH  021%=      5-min Rain = 0
KBY1 242007Z 08006KT 11/M10 A3018 RMK A01 T01101104  RH  021%=      5-min Rain = 0
KBY1 242008Z 11009KT 11/M10 A3018 RMK A01 T01111102  RH  021%=      5-min Rain = 0
KBY1 242009Z 10008KT 11/M10 A3018 RMK A01 T01121104  RH  021%=      5-min Rain = 0
KBY1 242010Z 10006KT 11/M11 A3017 RMK A01 T01101105  RH  021%=      5-min Rain = 0
KBY1 242011Z 07007KT 11/M11 A3017 RMK A01 T01091106  RH  021%=      5-min Rain = 0
KBY1 242012Z 06004KT 11/M11 A3017 RMK A01 T01091106  RH  021%=      5-min Rain = 0
KBY1 242013Z 06003KT 11/M11 A3017 RMK A01 T01101106  RH  021%=      5-min Rain = 0
KBY1 242014Z 06002KT 11/M11 A3017 RMK A01 T01091107  RH  021%=      5-min Rain = 0
KBY1 242015Z 06006KT 11/M11 A3017 RMK A01 T01091105  RH  021%=      5-min Rain = 0
KBY1 242016Z 03010KT 11/M10 A3017 RMK A01 T01111103  RH  021%=      5-min Rain = 0
KBY1 242017Z 02007KT 11/M11 A3017 RMK A01 T01121106  RH  021%=      5-min Rain = 0
KBY1 242018Z 04008KT 11/M11 A3017 RMK A01 T01131106  RH  020%=      5-min Rain = 0
KBY1 242019Z 08010KT 11/M10 A3017 RMK A01 T01131102  RH  021%=      5-min Rain = 0
KBY1 242020Z 08010KT 12/M10 A3017 RMK A01 T01151101  RH  021%=      5-min Rain = 0
KBY1 242021Z 08007KT 11/M10 A3017 RMK A01 T01141103  RH  021%=      5-min Rain = 0
KBY1 242022Z 05008KT 11/M10 A3017 RMK A01 T01131103  RH  021%=      5-min Rain = 0
KBY1 242023Z 04006KT 11/M10 A3017 RMK A01 T01131104  RH  021%=      5-min Rain = 0
KBY1 242024Z 06004KT 11/M11 A3017 RMK A01 T01101106  RH  021%=      5-min Rain = 0
KBY1 242025Z 04004KT 11/M10 A3016 RMK A01 T01101104  RH  021%=      5-min Rain = 0
KBY1 242026Z 05005KT 11/M10 A3016 RMK A01 T01121102  RH  021%=      5-min Rain = 0
KBY1 242027Z 07004KT 11/M10 A3016 RMK A01 T01141102  RH  021%=      5-min Rain = 0
KBY1 242028Z 09004KT 11/M10 A3016 RMK A01 T01141103  RH  021%=      5-min Rain = 0
KBY1 242029Z 10006KT 11/M10 A3016 RMK A01 T01141102  RH  021%=      5-min Rain = 0
KBY1 242030Z 08007KT 12/M10 A3016 RMK A01 T01151102  RH  021%=      5-min Rain = 0
KBY1 242031Z 08005KT 11/M11 A3016 RMK A01 T01131105  RH  021%=      5-min Rain = 0
KBY1 242032Z 10006KT 11/M10 A3016 RMK A01 T01121104  RH  021%=      5-min Rain = 0
KBY1 242033Z 09010KT 11/M10 A3016 RMK A01 T01131102  RH  021%=      5-min Rain = 0
KBY1 242034Z 09012KT 12/M10 A3016 RMK A01 T01151102  RH  021%=      5-min Rain = 0
KBY1 242035Z 08009KT 12/M10 A3016 RMK A01 T01151103  RH  021%=      5-min Rain = 0
KBY1 242036Z 07008KT 12/M10 A3016 RMK A01 T01151104  RH  021%=      5-min Rain = 0
KBY1 242037Z 08006KT 12/M10 A3016 RMK A01 T01151104  RH  021%=      5-min Rain = 0
KBY1 242038Z 07003KT 11/M11 A3016 RMK A01 T01131106  RH  020%=      5-min Rain = 0
KBY1 242039Z 07004KT 11/M11 A3016 RMK A01 T01121107  RH  020%=      5-min Rain = 0
KBY1 242040Z 05005KT 11/M11 A3016 RMK A01 T01121105  RH  021%=      5-min Rain = 0
KBY1 242041Z 06004KT 11/M11 A3015 RMK A01 T01121105  RH  021%=      5-min Rain = 0
KBY1 242042Z 07003KT 11/M11 A3015 RMK A01 T01111107  RH  020%=      5-min Rain = 0
KBY1 242043Z 08004KT 11/M11 A3015 RMK A01 T01101107  RH  021%=      5-min Rain = 0
KBY1 242044Z 07007KT 11/M11 A3015 RMK A01 T01111106  RH  021%=      5-min Rain = 0
KBY1 242045Z 09010KT 11/M10 A3016 RMK A01 T01141104  RH  021%=      5-min Rain = 0
KBY1 242046Z 09009KT 12/M10 A3016 RMK A01 T01161104  RH  020%=      5-min Rain = 0
KBY1 242047Z 11008KT 12/M10 A3016 RMK A01 T01191103  RH  020%=      5-min Rain = 0
KBY1 242048Z 12008KT 12/M11 A3016 RMK A01 T01211105  RH  020%=      5-min Rain = 0
KBY1 242049Z 15010KT 12/M11 A3015 RMK A01 T01181107  RH  020%=      5-min Rain = 0
KBY1 242050Z 14008KT 12/M11 A3015 RMK A01 T01161107  RH  020%=      5-min Rain = 0
KBY1 242051Z 12007KT 12/M11 A3015 RMK A01 T01161106  RH  020%=      5-min Rain = 0
KBY1 242052Z 11007KT 12/M11 A3015 RMK A01 T01151106  RH  020%=      5-min Rain = 0
KBY1 242053Z 11007KT 11/M11 A3015 RMK A01 T01141107  RH  020%=      5-min Rain = 0
KBY1 242054Z 08006KT 11/M11 A3015 RMK A01 T01121106  RH  020%=      5-min Rain = 0
KBY1 242055Z 08004KT 12/M10 A3015 RMK A01 T01151102  RH  021%=      5-min Rain = 0
KBY1 242056Z 08005KT 12/M10 A3015 RMK A01 T01171103  RH  020%=      5-min Rain = 0
KBY1 242057Z 07009KT 12/M10 A3015 RMK A01 T01161104  RH  020%=      5-min Rain = 0
KBY1 242058Z 08010KT 12/M10 A3015 RMK A01 T01171101  RH  021%=      5-min Rain = 0
KBY1 242059Z 08013KT 12/M10 A3015 RMK A01 T01191099  RH  021%=      5-min Rain = 0
KBY1 242100Z 07008KT 12/M10 A3015 RMK A01 T01201103  RH  020%=      5-min Rain = 0
KBY1 242101Z 09005KT 12/M11 A3015 RMK A01 T01161105  RH  020%=      5-min Rain = 0
KBY1 242102Z 10005KT 12/M10 A3015 RMK A01 T01151104  RH  020%=      5-min Rain = 0
KBY1 242103Z 08005KT 12/M10 A3015 RMK A01 T01161102  RH  021%=      5-min Rain = 0
KBY1 242104Z 09006KT 12/M10 A3015 RMK A01 T01191102  RH  020%=      5-min Rain = 0
KBY1 242105Z 07009KT 12/M10 A3015 RMK A01 T01191103  RH  020%=      5-min Rain = 0
KBY1 242106Z 08009KT 12/M10 A3015 RMK A01 T01191103  RH  020%=      5-min Rain = 0
KBY1 242107Z 07010KT 12/M11 A3015 RMK A01 T01171106  RH  020%=      5-min Rain = 0
KBY1 242108Z 07008KT 12/M11 A3015 RMK A01 T01161106  RH  020%=      5-min Rain = 0
KBY1 242109Z 07008KT 12/M11 A3015 RMK A01 T01151105  RH  020%=      5-min Rain = 0
KBY1 242110Z 06008KT 12/M10 A3015 RMK A01 T01181103  RH  020%=      5-min Rain = 0
KBY1 242111Z 06006KT 12/M11 A3014 RMK A01 T01181105  RH  020%=      5-min Rain = 0
KBY1 242112Z 07008KT 12/M10 A3014 RMK A01 T01181103  RH  020%=      5-min Rain = 0
KBY1 242113Z 09009KT 12/M10 A3014 RMK A01 T01201103  RH  020%=      5-min Rain = 0
KBY1 242114Z 09012KT 12/M10 A3014 RMK A01 T01211102  RH  020%=      5-min Rain = 0
KBY1 242115Z 10010KT 12/M10 A3014 RMK A01 T01221103  RH  020%=      5-min Rain = 0
KBY1 242116Z 12008KT 12/M10 A3015 RMK A01 T01221104  RH  020%=      5-min Rain = 0
KBY1 242117Z 11006KT 12/M11 A3014 RMK A01 T01201107  RH  019%=      5-min Rain = 0
KBY1 242118Z 09007KT 12/M11 A3014 RMK A01 T01191105  RH  020%=      5-min Rain = 0
KBY1 242119Z 09008KT 12/M11 A3015 RMK A01 T01201105  RH  020%=      5-min Rain = 0
KBY1 242120Z 09006KT 12/M11 A3015 RMK A01 T01201106  RH  019%=      5-min Rain = 0
KBY1 242121Z 09005KT 12/M11 A3014 RMK A01 T01181108  RH  019%=      5-min Rain = 0
KBY1 242122Z 09004KT 12/M11 A3014 RMK A01 T01171108  RH  020%=      5-min Rain = 0
KBY1 242123Z 08008KT 12/M11 A3014 RMK A01 T01171106  RH  020%=      5-min Rain = 0
KBY1 242124Z 09009KT 12/M11 A3014 RMK A01 T01181105  RH  020%=      5-min Rain = 0
KBY1 242125Z 08010KT 12/M10 A3014 RMK A01 T01181103  RH  020%=      5-min Rain = 0
KBY1 242126Z 08009KT 12/M10 A3015 RMK A01 T01221102  RH  020%=      5-min Rain = 0
KBY1 242127Z 08007KT 12/M10 A3015 RMK A01 T01211103  RH  020%=      5-min Rain = 0
KBY1 242128Z 08007KT 12/M10 A3015 RMK A01 T01191104  RH  020%=      5-min Rain = 0
KBY1 242129Z 08005KT 12/M11 A3015 RMK A01 T01171105  RH  020%=      5-min Rain = 0
KBY1 242130Z 07007KT 12/M10 A3015 RMK A01 T01171104  RH  020%=      5-min Rain = 0
KBY1 242131Z 06009KT 12/M11 A3015 RMK A01 T01181105  RH  020%=      5-min Rain = 0
KBY1 242132Z 05010KT 12/M11 A3015 RMK A01 T01171105  RH  020%=      5-min Rain = 0
KBY1 242133Z 07008KT 12/M11 A3015 RMK A01 T01181105  RH  020%=      5-min Rain = 0
KBY1 242134Z 11008KT 12/M10 A3015 RMK A01 T01201100  RH  020%=      5-min Rain = 0
KBY1 242135Z 10009KT 12/M10 A3015 RMK A01 T01241102  RH  020%=      5-min Rain = 0
KBY1 242136Z 09008KT 13/M10 A3015 RMK A01 T01251103  RH  019%=      5-min Rain = 0
KBY1 242137Z 09008KT 12/M11 A3015 RMK A01 T01211108  RH  019%=      5-min Rain = 0
KBY1 242138Z 08004KT 12/M11 A3014 RMK A01 T01181108  RH  020%=      5-min Rain = 0
KBY1 242139Z 07003KT 12/M11 A3014 RMK A01 T01171108  RH  020%=      5-min Rain = 0
KBY1 242140Z 10003KT 12/M11 A3014 RMK A01 T01181106  RH  020%=      5-min Rain = 0
KBY1 242141Z 09006KT 12/M11 A3014 RMK A01 T01201105  RH  020%=      5-min Rain = 0
KBY1 242142Z 08007KT 12/M10 A3014 RMK A01 T01211104  RH  020%=      5-min Rain = 0
KBY1 242143Z 09008KT 12/M10 A3014 RMK A01 T01231102  RH  020%=      5-min Rain = 0
KBY1 242144Z 09008KT 12/M11 A3014 RMK A01 T01231105  RH  019%=      5-min Rain = 0
KBY1 242145Z 10008KT 12/M10 A3014 RMK A01 T01221104  RH  019%=      5-min Rain = 0
KBY1 242146Z 11009KT 12/M11 A3014 RMK A01 T01231107  RH  019%=      5-min Rain = 0
KBY1 242147Z 12008KT 12/M11 A3014 RMK A01 T01221107  RH  019%=      5-min Rain = 0
KBY1 242148Z 12010KT 12/M11 A3014 RMK A01 T01241106  RH  019%=      5-min Rain = 0
KBY1 242149Z 14008KT 13/M11 A3014 RMK A01 T01261107  RH  019%=      5-min Rain = 0
KBY1 242150Z 14008KT 12/M11 A3014 RMK A01 T01241108  RH  019%=      5-min Rain = 0
KBY1 242151Z 12011KT 12/M11 A3014 RMK A01 T01241107  RH  019%=      5-min Rain = 0
KBY1 242152Z 12011KT 13/M11 A3015 RMK A01 T01251107  RH  019%=      5-min Rain = 0
KBY1 242153Z 12009KT 13/M11 A3015 RMK A01 T01261107  RH  019%=      5-min Rain = 0
KBY1 242154Z 13007KT 13/M11 A3015 RMK A01 T01251108  RH  019%=      5-min Rain = 0
KBY1 242155Z 16005KT 12/M11 A3015 RMK A01 T01241108  RH  019%=      5-min Rain = 0
KBY1 242156Z 15004KT 13/M11 A3015 RMK A01 T01251107  RH  019%=      5-min Rain = 0
KBY1 242157Z 16008KT 13/M11 A3015 RMK A01 T01261106  RH  019%=      5-min Rain = 0
KBY1 242158Z 17006KT 13/M11 A3015 RMK A01 T01251107  RH  019%=      5-min Rain = 0
KBY1 242159Z 13007KT 12/M11 A3015 RMK A01 T01241107  RH  019%=      5-min Rain = 0
KBY1 242200Z 11009KT 13/M10 A3015 RMK A01 T01251104  RH  019%=      5-min Rain = 0
KBY1 242201Z 11007KT 13/M11 A3015 RMK A01 T01261107  RH  019%=      5-min Rain = 0
KBY1 242202Z 12005KT 12/M11 A3015 RMK A01 T01241108  RH  019%=      5-min Rain = 0
KBY1 242203Z 14006KT 12/M11 A3015 RMK A01 T01221107  RH  019%=      5-min Rain = 0
KBY1 242204Z 13006KT 12/M11 A3015 RMK A01 T01221107  RH  019%=      5-min Rain = 0
KBY1 242205Z 12005KT 12/M11 A3014 RMK A01 T01211108  RH  019%=      5-min Rain = 0
KBY1 242206Z 12004KT 12/M11 A3014 RMK A01 T01191108  RH  019%=      5-min Rain = 0
KBY1 242207Z 12007KT 12/M11 A3014 RMK A01 T01201106  RH  020%=      5-min Rain = 0
KBY1 242208Z 11008KT 12/M11 A3014 RMK A01 T01211105  RH  020%=      5-min Rain = 0
KBY1 242209Z 11009KT 12/M11 A3014 RMK A01 T01211105  RH  020%=      5-min Rain = 0
KBY1 242210Z 12007KT 12/M11 A3014 RMK A01 T01221106  RH  019%=      5-min Rain = 0
KBY1 242211Z 12008KT 12/M11 A3014 RMK A01 T01221109  RH  019%=      5-min Rain = 0
KBY1 242212Z 13007KT 12/M11 A3014 RMK A01 T01211113  RH  018%=      5-min Rain = 0
KBY1 242213Z 14008KT 12/M11 A3014 RMK A01 T01201112  RH  019%=      5-min Rain = 0
KBY1 242214Z 13009KT 12/M11 A3014 RMK A01 T01241108  RH  019%=      5-min Rain = 0
KBY1 242215Z 12010KT 13/M11 A3014 RMK A01 T01251110  RH  018%=      5-min Rain = 0
KBY1 242216Z 10008KT 12/M11 A3014 RMK A01 T01221113  RH  018%=      5-min Rain = 0
KBY1 242217Z 10007KT 12/M11 A3014 RMK A01 T01201113  RH  018%=      5-min Rain = 0
KBY1 242218Z 12009KT 12/M11 A3014 RMK A01 T01191112  RH  019%=      5-min Rain = 0
KBY1 242219Z 13008KT 12/M11 A3014 RMK A01 T01201112  RH  019%=      5-min Rain = 0
KBY1 242220Z 13006KT 12/M11 A3014 RMK A01 T01191113  RH  019%=      5-min Rain = 0
KBY1 242221Z 13005KT 12/M11 A3014 RMK A01 T01181112  RH  019%=      5-min Rain = 0
KBY1 242222Z 14007KT 12/M11 A3014 RMK A01 T01191110  RH  019%=      5-min Rain = 0
KBY1 242223Z 15010KT 12/M11 A3014 RMK A01 T01211107  RH  019%=      5-min Rain = 0
KBY1 242224Z 15008KT 12/M11 A3014 RMK A01 T01211108  RH  019%=      5-min Rain = 0
KBY1 242225Z 14007KT 12/M11 A3014 RMK A01 T01201107  RH  019%=      5-min Rain = 0
KBY1 242226Z 11009KT 12/M11 A3014 RMK A01 T01201105  RH  020%=      5-min Rain = 0
KBY1 242227Z 10008KT 12/M10 A3014 RMK A01 T01211104  RH  020%=      5-min Rain = 0
KBY1 242228Z 11006KT 12/M10 A3014 RMK A01 T01211104  RH  020%=      5-min Rain = 0
KBY1 242229Z 10008KT 12/M10 A3014 RMK A01 T01211103  RH  020%=      5-min Rain = 0
KBY1 242230Z 09006KT 12/M10 A3014 RMK A01 T01211102  RH  020%=      5-min Rain = 0
KBY1 242231Z 10006KT 12/M10 A3014 RMK A01 T01191103  RH  020%=      5-min Rain = 0
KBY1 242232Z 10006KT 12/M10 A3014 RMK A01 T01181103  RH  020%=      5-min Rain = 0
KBY1 242233Z 09008KT 12/M10 A3014 RMK A01 T01191101  RH  021%=      5-min Rain = 0
KBY1 242234Z 10010KT 12/M10 A3014 RMK A01 T01191100  RH  021%=      5-min Rain = 0
KBY1 242235Z 10010KT 12/M10 A3014 RMK A01 T01201101  RH  020%=      5-min Rain = 0
KBY1 242236Z 13011KT 12/M10 A3014 RMK A01 T01201101  RH  020%=      5-min Rain = 0
KBY1 242237Z 14010KT 12/M10 A3014 RMK A01 T01201101  RH  020%=      5-min Rain = 0
KBY1 242238Z 14008KT 12/M10 A3014 RMK A01 T01191102  RH  020%=      5-min Rain = 0
KBY1 242239Z 15007KT 12/M10 A3014 RMK A01 T01191101  RH  020%=      5-min Rain = 0
KBY1 242240Z 16006KT 12/M10 A3014 RMK A01 T01191101  RH  020%=      5-min Rain = 0
KBY1 242241Z 13006KT 12/M10 A3014 RMK A01 T01201099  RH  021%=      5-min Rain = 0
KBY1 242242Z 10008KT 12/M10 A3014 RMK A01 T01221100  RH  020%=      5-min Rain = 0
KBY1 242243Z 12009KT 12/M10 A3014 RMK A01 T01211100  RH  020%=      5-min Rain = 0
KBY1 242244Z 11007KT 12/M10 A3014 RMK A01 T01201100  RH  021%=      5-min Rain = 0
KBY1 242245Z 09008KT 12/M10 A3014 RMK A01 T01191100  RH  021%=      5-min Rain = 0
KBY1 242246Z 11007KT 12/M10 A3014 RMK A01 T01191100  RH  021%=      5-min Rain = 0
KBY1 242247Z 13011KT 12/M10 A3014 RMK A01 T01201100  RH  020%=      5-min Rain = 0
KBY1 242248Z 12009KT 12/M10 A3014 RMK A01 T01211101  RH  020%=      5-min Rain = 0
KBY1 242249Z 12008KT 12/M10 A3014 RMK A01 T01201103  RH  020%=      5-min Rain = 0
KBY1 242250Z 13006KT 12/M10 A3014 RMK A01 T01181102  RH  020%=      5-min Rain = 0
KBY1 242251Z 12003KT 12/M10 A3014 RMK A01 T01201100  RH  020%=      5-min Rain = 0
KBY1 242252Z 13004KT 12/M10 A3014 RMK A01 T01211102  RH  020%=      5-min Rain = 0
KBY1 242253Z 12005KT 12/M10 A3014 RMK A01 T01211101  RH  020%=      5-min Rain = 0
KBY1 242254Z 12005KT 12/M10 A3013 RMK A01 T01211101  RH  020%=      5-min Rain = 0
KBY1 242255Z 12004KT 12/M10 A3013 RMK A01 T01211103  RH  020%=      5-min Rain = 0
KBY1 242256Z 14004KT 12/M10 A3013 RMK A01 T01191103  RH  020%=      5-min Rain = 0
KBY1 242257Z 10004KT 12/M10 A3014 RMK A01 T01201102  RH  020%=      5-min Rain = 0
KBY1 242258Z 08007KT 12/M10 A3014 RMK A01 T01201101  RH  020%=      5-min Rain = 0
KBY1 242259Z 08008KT 12/M10 A3014 RMK A01 T01201101  RH  020%=      5-min Rain = 0
KBY1 242300Z 08009KT 12/M10 A3014 RMK A01 T01201101  RH  020%=      5-min Rain = 0
KBY1 242301Z 07006KT 12/M10 A3014 RMK A01 T01181103  RH  020%=      5-min Rain = 0
KBY1 242302Z 06003KT 12/M10 A3014 RMK A01 T01161104  RH  020%=      5-min Rain = 0
KBY1 242303Z 07006KT 12/M10 A3013 RMK A01 T01161103  RH  020%=      5-min Rain = 0
KBY1 242304Z 08005KT 12/M10 A3013 RMK A01 T01171102  RH  021%=      5-min Rain = 0
KBY1 242305Z 08006KT 12/M10 A3013 RMK A01 T01181102  RH  020%=      5-min Rain = 0
KBY1 242306Z 08007KT 12/M10 A3013 RMK A01 T01181102  RH  020%=      5-min Rain = 0
KBY1 242307Z 08006KT 12/M10 A3013 RMK A01 T01181102  RH  020%=      5-min Rain = 0
KBY1 242308Z 10008KT 12/M10 A3013 RMK A01 T01181102  RH  020%=      5-min Rain = 0
KBY1 242309Z 11007KT 12/M10 A3013 RMK A01 T01191103  RH  020%=      5-min Rain = 0
KBY1 242310Z 10007KT 12/M10 A3013 RMK A01 T01191104  RH  020%=      5-min Rain = 0
KBY1 242311Z 10006KT 12/M11 A3014 RMK A01 T01181105  RH  020%=      5-min Rain = 0
KBY1 242312Z 10006KT 12/M10 A3014 RMK A01 T01191104  RH  020%=      5-min Rain = 0
KBY1 242313Z 09007KT 12/M11 A3014 RMK A01 T01181105  RH  020%=      5-min Rain = 0
KBY1 242314Z 10008KT 12/M10 A3014 RMK A01 T01191104  RH  020%=      5-min Rain = 0
KBY1 242315Z 09008KT 12/M11 A3014 RMK A01 T01191105  RH  020%=      5-min Rain = 0
KBY1 242316Z 12006KT 12/M10 A3014 RMK A01 T01191104  RH  020%=      5-min Rain = 0
KBY1 242317Z 12006KT 12/M11 A3014 RMK A01 T01181105  RH  020%=      5-min Rain = 0
KBY1 242318Z 12005KT 12/M11 A3014 RMK A01 T01181105  RH  020%=      5-min Rain = 0
KBY1 242319Z 12004KT 12/M11 A3014 RMK A01 T01171105  RH  020%=      5-min Rain = 0
KBY1 242320Z 10004KT 12/M11 A3014 RMK A01 T01181105  RH  020%=      5-min Rain = 0
KBY1 242321Z 11007KT 12/M10 A3014 RMK A01 T01191103  RH  020%=      5-min Rain = 0
KBY1 242322Z 11008KT 12/M10 A3014 RMK A01 T01201104  RH  020%=      5-min Rain = 0
KBY1 242323Z 11007KT 12/M10 A3014 RMK A01 T01191104  RH  020%=      5-min Rain = 0
KBY1 242324Z 13007KT 12/M11 A3014 RMK A01 T01191105  RH  020%=      5-min Rain = 0
KBY1 242325Z 14008KT 12/M11 A3014 RMK A01 T01181106  RH  020%=      5-min Rain = 0
KBY1 242326Z 14007KT 12/M11 A3014 RMK A01 T01191106  RH  020%=      5-min Rain = 0
KBY1 242327Z 12006KT 12/M11 A3014 RMK A01 T01181107  RH  020%=      5-min Rain = 0
KBY1 242328Z 11006KT 12/M11 A3014 RMK A01 T01181107  RH  020%=      5-min Rain = 0
KBY1 242329Z 10005KT 12/M11 A3014 RMK A01 T01181106  RH  020%=      5-min Rain = 0
KBY1 242330Z 08008KT 12/M10 A3014 RMK A01 T01181104  RH  020%=      5-min Rain = 0
KBY1 242331Z 08008KT 12/M11 A3014 RMK A01 T01181105  RH  020%=      5-min Rain = 0
KBY1 242332Z 08008KT 12/M11 A3014 RMK A01 T01181105  RH  020%=      5-min Rain = 0
KBY1 242333Z 09007KT 12/M11 A3014 RMK A01 T01171106  RH  020%=      5-min Rain = 0
KBY1 242334Z 10010KT 12/M11 A3014 RMK A01 T01171106  RH  020%=      5-min Rain = 0
KBY1 242335Z 09009KT 12/M11 A3014 RMK A01 T01161105  RH  020%=      5-min Rain = 0
KBY1 242336Z 09008KT 12/M11 A3014 RMK A01 T01161105  RH  020%=      5-min Rain = 0
KBY1 242337Z 09009KT 12/M10 A3014 RMK A01 T01171104  RH  020%=      5-min Rain = 0
KBY1 242338Z 10009KT 12/M11 A3014 RMK A01 T01171106  RH  020%=      5-min Rain = 0
KBY1 242339Z 09008KT 12/M11 A3014 RMK A01 T01161105  RH  020%=      5-min Rain = 0
KBY1 242340Z 09008KT 12/M11 A3014 RMK A01 T01171106  RH  020%=      5-min Rain = 0
KBY1 242341Z 08007KT 12/M11 A3014 RMK A01 T01161107  RH  020%=      5-min Rain = 0
KBY1 242342Z 08007KT 12/M11 A3014 RMK A01 T01151107  RH  020%=      5-min Rain = 0
KBY1 242343Z 09010KT 12/M11 A3014 RMK A01 T01151107  RH  020%=      5-min Rain = 0
KBY1 242344Z 08008KT 11/M11 A3014 RMK A01 T01141106  RH  020%=      5-min Rain = 0
KBY1 242345Z 09008KT 11/M11 A3014 RMK A01 T01141106  RH  020%=      5-min Rain = 0
KBY1 242346Z 08008KT 11/M11 A3014 RMK A01 T01141106  RH  020%=      5-min Rain = 0
KBY1 242347Z 09006KT 11/M11 A3014 RMK A01 T01141107  RH  020%=      5-min Rain = 0
KBY1 242348Z 09005KT 11/M11 A3014 RMK A01 T01131107  RH  020%=      5-min Rain = 0
KBY1 242349Z 08006KT 11/M11 A3014 RMK A01 T01131106  RH  020%=      5-min Rain = 0
KBY1 242350Z 09008KT 11/M11 A3014 RMK A01 T01131106  RH  020%=      5-min Rain = 0
KBY1 242351Z 10007KT 11/M11 A3014 RMK A01 T01131107  RH  020%=      5-min Rain = 0
KBY1 242352Z 11008KT 11/M11 A3014 RMK A01 T01131107  RH  020%=      5-min Rain = 0
KBY1 242353Z 10008KT 11/M11 A3014 RMK A01 T01131107  RH  020%=      5-min Rain = 0
KBY1 242354Z 09009KT 11/M11 A3014 RMK A01 T01131107  RH  020%=      5-min Rain = 0
KBY1 242355Z 09008KT 11/M11 A3014 RMK A01 T01131106  RH  020%=      5-min Rain = 0
KBY1 242356Z 11009KT 11/M11 A3015 RMK A01 T01131106  RH  021%=      5-min Rain = 0
KBY1 242357Z 10008KT 11/M11 A3015 RMK A01 T01131106  RH  020%=      5-min Rain = 0
KBY1 242358Z 11008KT 11/M11 A3015 RMK A01 T01121107  RH  020%=      5-min Rain = 0
KBY1 242359Z 10009KT 11/M11 A3015 RMK A01 T01121106  RH  021%=      5-min Rain = 0
KBY1 250000Z 10009KT 11/M11 A3015 RMK A01 T01111106  RH  021%=      5-min Rain = 0
KBY1 250001Z 10008KT 11/M11 A3014 RMK A01 T01111106  RH  021%=      5-min Rain = 0
KBY1 250002Z 10009KT 11/M11 A3015 RMK A01 T01111106  RH  021%=      5-min Rain = 0
KBY1 250003Z 09008KT 11/M11 A3015 RMK A01 T01111106  RH  021%=      5-min Rain = 0
KBY1 250004Z 10008KT 11/M11 A3015 RMK A01 T01111106  RH  021%=      5-min Rain = 0
KBY1 250005Z 10007KT 11/M11 A3015 RMK A01 T01111106  RH  021%=      5-min Rain = 0
KBY1 250006Z 10007KT 11/M11 A3015 RMK A01 T01101106  RH  021%=      5-min Rain = 0
KBY1 250007Z 10008KT 11/M11 A3015 RMK A01 T01091106  RH  021%=      5-min Rain = 0
KBY1 250008Z 10007KT 11/M11 A3015 RMK A01 T01091106  RH  021%=      5-min Rain = 0
KBY1 250009Z 10008KT 11/M11 A3015 RMK A01 T01091106  RH  021%=      5-min Rain = 0
KBY1 250010Z 10006KT 11/M11 A3015 RMK A01 T01091106  RH  021%=      5-min Rain = 0
KBY1 250011Z 10005KT 11/M11 A3015 RMK A01 T01091105  RH  021%=      5-min Rain = 0
KBY1 250012Z 11007KT 11/M11 A3015 RMK A01 T01081105  RH  021%=      5-min Rain = 0
KBY1 250013Z 10007KT 11/M11 A3015 RMK A01 T01071105  RH  021%=      5-min Rain = 0
KBY1 250014Z 11007KT 11/M11 A3015 RMK A01 T01071105  RH  022%=      5-min Rain = 0
KBY1 250015Z 10007KT 11/M11 A3015 RMK A01 T01061105  RH  022%=      5-min Rain = 0
KBY1 250016Z 10007KT 11/M11 A3015 RMK A01 T01061105  RH  022%=      5-min Rain = 0
KBY1 250017Z 10007KT 11/M10 A3015 RMK A01 T01061104  RH  022%=      5-min Rain = 0
KBY1 250018Z 10007KT 11/M10 A3015 RMK A01 T01051104  RH  022%=      5-min Rain = 0
KBY1 250019Z 10006KT 10/M10 A3016 RMK A01 T01041104  RH  022%=      5-min Rain = 0
KBY1 250020Z 09007KT 10/M10 A3016 RMK A01 T01031104  RH  022%=      5-min Rain = 0
KBY1 250021Z 09006KT 10/M10 A3016 RMK A01 T01031104  RH  022%=      5-min Rain = 0
KBY1 250022Z 09006KT 10/M10 A3016 RMK A01 T01031104  RH  022%=      5-min Rain = 0
KBY1 250023Z 09006KT 10/M10 A3016 RMK A01 T01011104  RH  023%=      5-min Rain = 0
KBY1 250024Z 09006KT 10/M10 A3016 RMK A01 T01001103  RH  023%=      5-min Rain = 0
KBY1 250025Z 09007KT 10/M10 A3016 RMK A01 T00991103  RH  023%=      5-min Rain = 0
KBY1 250026Z 09008KT 10/M10 A3016 RMK A01 T00991103  RH  023%=      5-min Rain = 0
KBY1 250027Z 09006KT 10/M10 A3016 RMK A01 T00991103  RH  023%=      5-min Rain = 0
KBY1 250028Z 09006KT 10/M10 A3016 RMK A01 T00981103  RH  023%=      5-min Rain = 0
KBY1 250029Z 09006KT 10/M10 A3016 RMK A01 T00961102  RH  023%=      5-min Rain = 0
KBY1 250030Z 09006KT 10/M10 A3016 RMK A01 T00961102  RH  024%=      5-min Rain = 0
KBY1 250031Z 09005KT 10/M10 A3016 RMK A01 T00951102  RH  024%=      5-min Rain = 0
KBY1 250032Z 09005KT 09/M10 A3016 RMK A01 T00941102  RH  024%=      5-min Rain = 0
KBY1 250033Z 09006KT 09/M10 A3016 RMK A01 T00941102  RH  024%=      5-min Rain = 0
KBY1 250034Z 08005KT 09/M10 A3016 RMK A01 T00931102  RH  024%=      5-min Rain = 0
KBY1 250035Z 09005KT 09/M10 A3017 RMK A01 T00911102  RH  024%=      5-min Rain = 0
KBY1 250036Z 09006KT 09/M10 A3017 RMK A01 T00911101  RH  025%=      5-min Rain = 0
KBY1 250037Z 09006KT 09/M10 A3017 RMK A01 T00911100  RH  025%=      5-min Rain = 0
KBY1 250038Z 10005KT 09/M10 A3017 RMK A01 T00901100  RH  025%=      5-min Rain = 0
KBY1 250039Z 09005KT 09/M10 A3017 RMK A01 T00891100  RH  025%=      5-min Rain = 0
KBY1 250040Z 09005KT 09/M10 A3017 RMK A01 T00881100  RH  025%=      5-min Rain = 0
KBY1 250041Z 09005KT 09/M10 A3017 RMK A01 T00881099  RH  025%=      5-min Rain = 0
KBY1 250042Z 08005KT 09/M10 A3017 RMK A01 T00881099  RH  026%=      5-min Rain = 0
KBY1 250043Z 09005KT 09/M10 A3017 RMK A01 T00871099  RH  026%=      5-min Rain = 0
KBY1 250044Z 08005KT 09/M10 A3017 RMK A01 T00861100  RH  026%=      5-min Rain = 0
KBY1 250045Z 08006KT 09/M10 A3016 RMK A01 T00851100  RH  026%=      5-min Rain = 0
KBY1 250046Z 09005KT 09/M10 A3017 RMK A01 T00851100  RH  026%=      5-min Rain = 0
KBY1 250047Z 09005KT 09/M10 A3017 RMK A01 T00851100  RH  026%=      5-min Rain = 0
KBY1 250048Z 08005KT 08/M10 A3017 RMK A01 T00841100  RH  026%=      5-min Rain = 0
KBY1 250049Z 09005KT 08/M10 A3017 RMK A01 T00831100  RH  026%=      5-min Rain = 0
KBY1 250050Z 08005KT 08/M10 A3017 RMK A01 T00821100  RH  026%=      5-min Rain = 0
KBY1 250051Z 08006KT 08/M10 A3017 RMK A01 T00821100  RH  026%=      5-min Rain = 0
KBY1 250052Z 08006KT 08/M10 A3017 RMK A01 T00821100  RH  026%=      5-min Rain = 0
KBY1 250053Z 08006KT 08/M10 A3017 RMK A01 T00811100  RH  027%=      5-min Rain = 0
KBY1 250054Z 09006KT 08/M10 A3017 RMK A01 T00801100  RH  027%=      5-min Rain = 0
KBY1 250055Z 08006KT 08/M10 A3017 RMK A01 T00801100  RH  027%=      5-min Rain = 0
KBY1 250056Z 09006KT 08/M10 A3017 RMK A01 T00791101  RH  027%=      5-min Rain = 0
KBY1 250057Z 09006KT 08/M10 A3017 RMK A01 T00781101  RH  027%=      5-min Rain = 0
KBY1 250058Z 09006KT 08/M10 A3017 RMK A01 T00781101  RH  027%=      5-min Rain = 0
KBY1 250059Z 09006KT 08/M10 A3017 RMK A01 T00781100  RH  027%=      5-min Rain = 0
KBY1 250100Z 09006KT 08/M10 A3017 RMK A01 T00781101  RH  027%=      5-min Rain = 0
KBY1 250101Z 09005KT 08/M10 A3017 RMK A01 T00781101  RH  027%=      5-min Rain = 0
KBY1 250102Z 09006KT 08/M10 A3017 RMK A01 T00771101  RH  027%=      5-min Rain = 0
KBY1 250103Z 09006KT 08/M10 A3018 RMK A01 T00771101  RH  027%=      5-min Rain = 0
KBY1 250104Z 09006KT 08/M10 A3018 RMK A01 T00761101  RH  027%=      5-min Rain = 0
KBY1 250105Z 09006KT 08/M10 A3017 RMK A01 T00761101  RH  027%=      5-min Rain = 0
KBY1 250106Z 08005KT 07/M10 A3018 RMK A01 T00741101  RH  027%=      5-min Rain = 0
KBY1 250107Z 08005KT 07/M10 A3018 RMK A01 T00731101  RH  028%=      5-min Rain = 0
KBY1 250108Z 08004KT 07/M10 A3018 RMK A01 T00721102  RH  028%=      5-min Rain = 0
KBY1 250109Z 08004KT 07/M10 A3018 RMK A01 T00711101  RH  028%=      5-min Rain = 0
KBY1 250110Z 07005KT 07/M10 A3018 RMK A01 T00711101  RH  028%=      5-min Rain = 0
KBY1 250111Z 08005KT 07/M10 A3018 RMK A01 T00711101  RH  028%=      5-min Rain = 0
KBY1 250112Z 08005KT 07/M10 A3018 RMK A01 T00711101  RH  028%=      5-min Rain = 0
KBY1 250113Z 08005KT 07/M10 A3018 RMK A01 T00711101  RH  028%=      5-min Rain = 0
KBY1 250114Z 07006KT 07/M10 A3018 RMK A01 T00701101  RH  028%=      5-min Rain = 0
KBY1 250115Z 08006KT 07/M10 A3018 RMK A01 T00681101  RH  029%=      5-min Rain = 0
KBY1 250116Z 08005KT 07/M10 A3017 RMK A01 T00671101  RH  029%=      5-min Rain = 0
KBY1 250117Z 08006KT 07/M10 A3017 RMK A01 T00671101  RH  029%=      5-min Rain = 0
KBY1 250118Z 08006KT 07/M10 A3017 RMK A01 T00671100  RH  029%=      5-min Rain = 0
KBY1 250119Z 07006KT 07/M10 A3018 RMK A01 T00671099  RH  029%=      5-min Rain = 0
KBY1 250120Z 07005KT 07/M10 A3018 RMK A01 T00691098  RH  029%=      5-min Rain = 0
KBY1 250121Z 07005KT 07/M10 A3018 RMK A01 T00691099  RH  029%=      5-min Rain = 0
KBY1 250122Z 07006KT 07/M10 A3018 RMK A01 T00691099  RH  029%=      5-min Rain = 0
KBY1 250123Z 07006KT 07/M10 A3017 RMK A01 T00691099  RH  029%=      5-min Rain = 0
KBY1 250124Z 07006KT 07/M10 A3018 RMK A01 T00691100  RH  029%=      5-min Rain = 0
KBY1 250125Z 08006KT 07/M10 A3018 RMK A01 T00691099  RH  029%=      5-min Rain = 0
KBY1 250126Z 07006KT 07/M10 A3018 RMK A01 T00701100  RH  029%=      5-min Rain = 0
KBY1 250127Z 07006KT 07/M10 A3018 RMK A01 T00701100  RH  029%=      5-min Rain = 0
KBY1 250128Z 07006KT 07/M10 A3018 RMK A01 T00701100  RH  029%=      5-min Rain = 0
KBY1 250129Z 07006KT 07/M10 A3018 RMK A01 T00701100  RH  029%=      5-min Rain = 0
KBY1 250130Z 07007KT 07/M10 A3018 RMK A01 T00701100  RH  029%=      5-min Rain = 0
KBY1 250131Z 07007KT 07/M10 A3018 RMK A01 T00701100  RH  029%=      5-min Rain = 0
KBY1 250132Z 07007KT 07/M10 A3018 RMK A01 T00711100  RH  028%=      5-min Rain = 0
KBY1 250133Z 07008KT 07/M10 A3018 RMK A01 T00711100  RH  028%=      5-min Rain = 0
KBY1 250134Z 07008KT 07/M10 A3018 RMK A01 T00701101  RH  028%=      5-min Rain = 0
KBY1 250135Z 07008KT 07/M10 A3018 RMK A01 T00701101  RH  028%=      5-min Rain = 0
KBY1 250136Z 07007KT 07/M10 A3018 RMK A01 T00691101  RH  029%=      5-min Rain = 0
KBY1 250137Z 08007KT 07/M10 A3018 RMK A01 T00691101  RH  028%=      5-min Rain = 0
KBY1 250138Z 08007KT 07/M10 A3018 RMK A01 T00691101  RH  029%=      5-min Rain = 0
KBY1 250139Z 08008KT 07/M10 A3018 RMK A01 T00681101  RH  029%=      5-min Rain = 0
KBY1 250140Z 08007KT 07/M10 A3017 RMK A01 T00681101  RH  029%=      5-min Rain = 0
KBY1 250141Z 08006KT 07/M10 A3017 RMK A01 T00681101  RH  029%=      5-min Rain = 0
KBY1 250142Z 08006KT 07/M10 A3017 RMK A01 T00661101  RH  029%=      5-min Rain = 0
KBY1 250143Z 08005KT 06/M10 A3017 RMK A01 T00641102  RH  029%=      5-min Rain = 0
KBY1 250144Z 11003KT 06/M10 A3017 RMK A01 T00611102  RH  030%=      5-min Rain = 0
KBY1 250145Z 12003KT 06/M10 A3017 RMK A01 T00581102  RH  031%=      5-min Rain = 0
KBY1 250146Z 13004KT 05/M10 A3017 RMK A01 T00541102  RH  031%=      5-min Rain = 0
KBY1 250147Z 12004KT 05/M10 A3018 RMK A01 T00521101  RH  032%=      5-min Rain = 0
KBY1 250148Z 12004KT 05/M10 A3018 RMK A01 T00501100  RH  033%=      5-min Rain = 0
KBY1 250149Z 11004KT 05/M10 A3018 RMK A01 T00491100  RH  033%=      5-min Rain = 0
KBY1 250150Z 12004KT 05/M10 A3018 RMK A01 T00471100  RH  033%=      5-min Rain = 0
KBY1 250151Z 12004KT 05/M10 A3018 RMK A01 T00471100  RH  034%=      5-min Rain = 0
KBY1 250152Z 12004KT 05/M10 A3018 RMK A01 T00451101  RH  034%=      5-min Rain = 0
KBY1 250153Z 12004KT 04/M10 A3018 RMK A01 T00441100  RH  034%=      5-min Rain = 0
KBY1 250154Z 12004KT 04/M10 A3018 RMK A01 T00441100  RH  034%=      5-min Rain = 0
KBY1 250155Z 12004KT 04/M10 A3018 RMK A01 T00431100  RH  035%=      5-min Rain = 0
KBY1 250156Z 12004KT 04/M10 A3018 RMK A01 T00421100  RH  035%=      5-min Rain = 0
KBY1 250157Z 12004KT 04/M10 A3018 RMK A01 T00411100  RH  035%=      5-min Rain = 0
KBY1 250158Z 12004KT 04/M10 A3018 RMK A01 T00401100  RH  035%=      5-min Rain = 0
KBY1 250159Z 12004KT 04/M10 A3018 RMK A01 T00391100  RH  036%=      5-min Rain = 0
KBY1 250200Z 12004KT 04/M10 A3018 RMK A01 T00381100  RH  036%=      5-min Rain = 0
KBY1 250201Z 12003KT 04/M10 A3018 RMK A01 T00381100  RH  036%=      5-min Rain = 0
KBY1 250202Z 12003KT 04/M10 A3018 RMK A01 T00371100  RH  036%=      5-min Rain = 0
KBY1 250203Z 12002KT 04/M10 A3018 RMK A01 T00361101  RH  036%=      5-min Rain = 0
KBY1 250204Z 10002KT 04/M10 A3018 RMK A01 T00351101  RH  036%=      5-min Rain = 0
KBY1 250205Z 10001KT 04/M10 A3018 RMK A01 T00361101  RH  036%=      5-min Rain = 0
KBY1 250206Z 10001KT 04/M10 A3018 RMK A01 T00361101  RH  036%=      5-min Rain = 0
KBY1 250207Z 11002KT 04/M10 A3018 RMK A01 T00361100  RH  036%=      5-min Rain = 0
KBY1 250208Z 12002KT 04/M10 A3018 RMK A01 T00361100  RH  036%=      5-min Rain = 0
KBY1 250209Z 12002KT 04/M10 A3018 RMK A01 T00361100  RH  036%=      5-min Rain = 0
KBY1 250210Z 11002KT 04/M10 A3019 RMK A01 T00351101  RH  036%=      5-min Rain = 0
KBY1 250211Z 11003KT 04/M10 A3019 RMK A01 T00351101  RH  036%=      5-min Rain = 0
KBY1 250212Z 11003KT 04/M10 A3019 RMK A01 T00351101  RH  036%=      5-min Rain = 0
KBY1 250213Z 11003KT 04/M10 A3019 RMK A01 T00361101  RH  036%=      5-min Rain = 0
KBY1 250214Z 11003KT 04/M10 A3019 RMK A01 T00371100  RH  036%=      5-min Rain = 0
KBY1 250215Z 11003KT 04/M10 A3019 RMK A01 T00371101  RH  036%=      5-min Rain = 0
KBY1 250216Z 11004KT 04/M10 A3019 RMK A01 T00371101  RH  036%=      5-min Rain = 0
KBY1 250217Z 10004KT 04/M10 A3019 RMK A01 T00371101  RH  036%=      5-min Rain = 0
KBY1 250218Z 10005KT 04/M10 A3019 RMK A01 T00371101  RH  036%=      5-min Rain = 0
KBY1 250219Z 10005KT 04/M10 A3019 RMK A01 T00371101  RH  036%=      5-min Rain = 0
KBY1 250220Z 10004KT 04/M10 A3019 RMK A01 T00361101  RH  036%=      5-min Rain = 0
KBY1 250221Z 11004KT 04/M10 A3019 RMK A01 T00361102  RH  036%=      5-min Rain = 0
KBY1 250222Z 11004KT 04/M10 A3019 RMK A01 T00351102  RH  036%=      5-min Rain = 0
KBY1 250223Z 11004KT 04/M10 A3019 RMK A01 T00351102  RH  036%=      5-min Rain = 0
KBY1 250224Z 10004KT 03/M10 A3019 RMK A01 T00341102  RH  036%=      5-min Rain = 0
KBY1 250225Z 10004KT 03/M10 A3019 RMK A01 T00341102  RH  036%=      5-min Rain = 0
KBY1 250226Z 10004KT 03/M10 A3019 RMK A01 T00341102  RH  036%=      5-min Rain = 0
KBY1 250227Z 10004KT 03/M10 A3019 RMK A01 T00341102  RH  036%=      5-min Rain = 0
KBY1 250228Z 10003KT 03/M10 A3019 RMK A01 T00341102  RH  036%=      5-min Rain = 0
KBY1 250229Z 10004KT 03/M10 A3019 RMK A01 T00331102  RH  036%=      5-min Rain = 0
KBY1 250230Z 09004KT 03/M10 A3019 RMK A01 T00331102  RH  036%=      5-min Rain = 0
KBY1 250231Z 09004KT 03/M10 A3019 RMK A01 T00331102  RH  036%=      5-min Rain = 0
KBY1 250232Z 10003KT 03/M10 A3019 RMK A01 T00341101  RH  036%=      5-min Rain = 0
KBY1 250233Z 10003KT 03/M10 A3019 RMK A01 T00341101  RH  036%=      5-min Rain = 0
KBY1 250234Z 10003KT 03/M10 A3019 RMK A01 T00331102  RH  036%=      5-min Rain = 0
KBY1 250235Z 09003KT 03/M10 A3019 RMK A01 T00341101  RH  036%=      5-min Rain = 0
KBY1 250236Z 09003KT 03/M10 A3019 RMK A01 T00331102  RH  037%=      5-min Rain = 0
KBY1 250237Z 09003KT 03/M10 A3019 RMK A01 T00331102  RH  037%=      5-min Rain = 0
KBY1 250238Z 09003KT 03/M10 A3019 RMK A01 T00321102  RH  037%=      5-min Rain = 0
KBY1 250239Z 08003KT 03/M10 A3019 RMK A01 T00321102  RH  037%=      5-min Rain = 0
KBY1 250240Z 08003KT 03/M10 A3019 RMK A01 T00331101  RH  037%=      5-min Rain = 0
KBY1 250241Z 08003KT 03/M10 A3019 RMK A01 T00331102  RH  037%=      5-min Rain = 0
KBY1 250242Z 08004KT 03/M10 A3019 RMK A01 T00331102  RH  037%=      5-min Rain = 0
KBY1 250243Z 08004KT 03/M10 A3019 RMK A01 T00331102  RH  036%=      5-min Rain = 0
KBY1 250244Z 08003KT 03/M10 A3019 RMK A01 T00341102  RH  036%=      5-min Rain = 0
KBY1 250245Z 09003KT 03/M10 A3019 RMK A01 T00341102  RH  036%=      5-min Rain = 0
KBY1 250246Z 09003KT 04/M10 A3019 RMK A01 T00351102  RH  036%=      5-min Rain = 0
KBY1 250247Z 10003KT 04/M10 A3019 RMK A01 T00351103  RH  036%=      5-min Rain = 0
KBY1 250248Z 09003KT 04/M10 A3019 RMK A01 T00351102  RH  036%=      5-min Rain = 0
KBY1 250249Z 09003KT 04/M10 A3019 RMK A01 T00351102  RH  036%=      5-min Rain = 0
KBY1 250250Z 09003KT 03/M10 A3019 RMK A01 T00341102  RH  036%=      5-min Rain = 0
KBY1 250251Z 09003KT 03/M10 A3019 RMK A01 T00341103  RH  036%=      5-min Rain = 0
KBY1 250252Z 09003KT 03/M10 A302 RMK A01 T00341103  RH  036%=      5-min Rain = 0
KBY1 250253Z 09003KT 03/M10 A302 RMK A01 T00341103  RH  036%=      5-min Rain = 0
KBY1 250254Z 09003KT 03/M10 A302 RMK A01 T00341103  RH  036%=      5-min Rain = 0
KBY1 250255Z 10004KT 03/M10 A302 RMK A01 T00341103  RH  036%=      5-min Rain = 0
KBY1 250256Z 10004KT 04/M10 A302 RMK A01 T00351103  RH  036%=      5-min Rain = 0
KBY1 250257Z 10004KT 04/M10 A302 RMK A01 T00351104  RH  035%=      5-min Rain = 0
KBY1 250258Z 10004KT 04/M10 A302 RMK A01 T00351104  RH  035%=      5-min Rain = 0
KBY1 250259Z 10004KT 04/M10 A302 RMK A01 T00351104  RH  035%=      5-min Rain = 0
KBY1 250300Z 10004KT 04/M10 A302 RMK A01 T00351104  RH  035%=      5-min Rain = 0
KBY1 250301Z 10004KT 04/M10 A302 RMK A01 T00351104  RH  035%=      5-min Rain = 0
KBY1 250302Z 10004KT 04/M10 A302 RMK A01 T00361103  RH  035%=      5-min Rain = 0
KBY1 250303Z 10004KT 04/M10 A302 RMK A01 T00361104  RH  035%=      5-min Rain = 0
KBY1 250304Z 10004KT 04/M10 A302 RMK A01 T00361104  RH  035%=      5-min Rain = 0
KBY1 250305Z 10004KT 04/M10 A302 RMK A01 T00361104  RH  035%=      5-min Rain = 0
KBY1 250306Z 10004KT 04/M10 A302 RMK A01 T00351104  RH  035%=      5-min Rain = 0
KBY1 250307Z 10004KT 04/M10 A302 RMK A01 T00361104  RH  035%=      5-min Rain = 0
KBY1 250308Z 10004KT 04/M10 A302 RMK A01 T00361104  RH  035%=      5-min Rain = 0
KBY1 250309Z 11004KT 04/M11 A302 RMK A01 T00361105  RH  035%=      5-min Rain = 0
KBY1 250310Z 11004KT 04/M11 A302 RMK A01 T00351105  RH  035%=      5-min Rain = 0
KBY1 250311Z 10004KT 04/M11 A302 RMK A01 T00351106  RH  035%=      5-min Rain = 0
KBY1 250312Z 10004KT 04/M11 A302 RMK A01 T00351106  RH  035%=      5-min Rain = 0
KBY1 250313Z 10004KT 04/M11 A302 RMK A01 T00351105  RH  035%=      5-min Rain = 0
KBY1 250314Z 10004KT 04/M11 A302 RMK A01 T00351106  RH  035%=      5-min Rain = 0
KBY1 250315Z 10004KT 03/M11 A302 RMK A01 T00341106  RH  035%=      5-min Rain = 0
KBY1 250316Z 10004KT 03/M11 A302 RMK A01 T00331106  RH  035%=      5-min Rain = 0
KBY1 250317Z 10004KT 03/M11 A302 RMK A01 T00321107  RH  035%=      5-min Rain = 0
KBY1 250318Z 10004KT 03/M11 A302 RMK A01 T00321106  RH  035%=      5-min Rain = 0
KBY1 250319Z 11004KT 03/M11 A302 RMK A01 T00331106  RH  035%=      5-min Rain = 0
KBY1 250320Z 11004KT 03/M11 A302 RMK A01 T00321106  RH  035%=      5-min Rain = 0
KBY1 250321Z 11004KT 03/M11 A302 RMK A01 T00321106  RH  036%=      5-min Rain = 0
KBY1 250322Z 11004KT 03/M11 A302 RMK A01 T00311106  RH  036%=      5-min Rain = 0
KBY1 250323Z 11004KT 03/M11 A302 RMK A01 T00311106  RH  036%=      5-min Rain = 0
KBY1 250324Z 11003KT 03/M11 A302 RMK A01 T00301106  RH  036%=      5-min Rain = 0
KBY1 250325Z 11004KT 03/M11 A302 RMK A01 T00301106  RH  036%=      5-min Rain = 0
KBY1 250326Z 12004KT 03/M11 A3021 RMK A01 T00291106  RH  036%=      5-min Rain = 0
KBY1 250327Z 11004KT 03/M11 A3021 RMK A01 T00281107  RH  036%=      5-min Rain = 0
KBY1 250328Z 11004KT 03/M11 A3021 RMK A01 T00271107  RH  037%=      5-min Rain = 0
KBY1 250329Z 11004KT 03/M11 A3021 RMK A01 T00271106  RH  037%=      5-min Rain = 0
KBY1 250330Z 11004KT 03/M11 A3021 RMK A01 T00271106  RH  037%=      5-min Rain = 0
KBY1 250331Z 11004KT 03/M11 A3021 RMK A01 T00271106  RH  037%=      5-min Rain = 0
KBY1 250332Z 11004KT 03/M11 A3021 RMK A01 T00261107  RH  037%=      5-min Rain = 0
KBY1 250333Z 11004KT 03/M11 A3021 RMK A01 T00261107  RH  037%=      5-min Rain = 0
KBY1 250334Z 11004KT 03/M11 A3021 RMK A01 T00261107  RH  037%=      5-min Rain = 0
KBY1 250335Z 12004KT 03/M11 A3021 RMK A01 T00261106  RH  037%=      5-min Rain = 0
KBY1 250336Z 12004KT 03/M11 A3021 RMK A01 T00261106  RH  037%=      5-min Rain = 0
KBY1 250337Z 12004KT 03/M11 A3021 RMK A01 T00251107  RH  037%=      5-min Rain = 0
KBY1 250338Z 12004KT 02/M11 A3021 RMK A01 T00241107  RH  037%=      5-min Rain = 0
KBY1 250339Z 12004KT 02/M11 A3021 RMK A01 T00241107  RH  037%=      5-min Rain = 0
KBY1 250340Z 12004KT 02/M11 A3021 RMK A01 T00241106  RH  038%=      5-min Rain = 0
KBY1 250341Z 11004KT 02/M11 A3021 RMK A01 T00231107  RH  038%=      5-min Rain = 0
KBY1 250342Z 11004KT 02/M11 A3022 RMK A01 T00231107  RH  038%=      5-min Rain = 0
KBY1 250343Z 11004KT 02/M11 A3022 RMK A01 T00231107  RH  038%=      5-min Rain = 0
KBY1 250344Z 11004KT 02/M11 A3022 RMK A01 T00231107  RH  038%=      5-min Rain = 0
KBY1 250345Z 11003KT 02/M11 A3022 RMK A01 T00231107  RH  038%=      5-min Rain = 0
KBY1 250346Z 11004KT 02/M11 A3022 RMK A01 T00231107  RH  038%=      5-min Rain = 0
KBY1 250347Z 11003KT 02/M11 A3022 RMK A01 T00231107  RH  038%=      5-min Rain = 0
KBY1 250348Z 11004KT 02/M11 A3022 RMK A01 T00231107  RH  038%=      5-min Rain = 0
KBY1 250349Z 11003KT 02/M11 A3022 RMK A01 T00231108  RH  038%=      5-min Rain = 0
KBY1 250350Z 11004KT 02/M11 A3022 RMK A01 T00231107  RH  038%=      5-min Rain = 0
KBY1 250351Z 10003KT 02/M11 A3022 RMK A01 T00221107  RH  038%=      5-min Rain = 0
KBY1 250352Z 10004KT 02/M11 A3022 RMK A01 T00221107  RH  038%=      5-min Rain = 0
KBY1 250353Z 10003KT 02/M11 A3022 RMK A01 T00231106  RH  038%=      5-min Rain = 0
KBY1 250354Z 11003KT 02/M11 A3022 RMK A01 T00221107  RH  038%=      5-min Rain = 0
KBY1 250355Z 12003KT 02/M11 A3022 RMK A01 T00211107  RH  038%=      5-min Rain = 0
KBY1 250356Z 12004KT 02/M11 A3022 RMK A01 T00211107  RH  038%=      5-min Rain = 0
KBY1 250357Z 11004KT 02/M11 A3022 RMK A01 T00201107  RH  038%=      5-min Rain = 0
KBY1 250358Z 11004KT 02/M11 A3022 RMK A01 T00201107  RH  038%=      5-min Rain = 0
KBY1 250359Z 12004KT 02/M11 A3022 RMK A01 T00201107  RH  038%=      5-min Rain = 0
KBY1 250400Z 11004KT 02/M11 A3022 RMK A01 T00191107  RH  039%=      5-min Rain = 0
KBY1 250401Z 11004KT 02/M11 A3022 RMK A01 T00191108  RH  039%=      5-min Rain = 0
KBY1 250402Z 12005KT 02/M11 A3022 RMK A01 T00181107  RH  039%=      5-min Rain = 0
KBY1 250403Z 12005KT 02/M11 A3022 RMK A01 T00181107  RH  039%=      5-min Rain = 0
KBY1 250404Z 11004KT 02/M11 A3022 RMK A01 T00171107  RH  039%=      5-min Rain = 0
KBY1 250405Z 11004KT 02/M11 A3022 RMK A01 T00161107  RH  040%=      5-min Rain = 0
KBY1 250406Z 11004KT 02/M11 A3022 RMK A01 T00151106  RH  040%=      5-min Rain = 0
KBY1 250407Z 12005KT 02/M11 A3022 RMK A01 T00151107  RH  040%=      5-min Rain = 0
KBY1 250408Z 12004KT 01/M11 A3022 RMK A01 T00141107  RH  040%=      5-min Rain = 0
KBY1 250409Z 12004KT 01/M11 A3022 RMK A01 T00131106  RH  041%=      5-min Rain = 0
KBY1 250410Z 12004KT 01/M11 A3022 RMK A01 T00121106  RH  041%=      5-min Rain = 0
KBY1 250411Z 11004KT 01/M11 A3022 RMK A01 T00121106  RH  041%=      5-min Rain = 0
KBY1 250412Z 11004KT 01/M11 A3022 RMK A01 T00111106  RH  041%=      5-min Rain = 0
KBY1 250413Z 11004KT 01/M11 A3022 RMK A01 T00111106  RH  041%=      5-min Rain = 0
KBY1 250414Z 10004KT 01/M11 A3022 RMK A01 T00111106  RH  041%=      5-min Rain = 0
KBY1 250415Z 10004KT 01/M11 A3022 RMK A01 T00121105  RH  041%=      5-min Rain = 0
KBY1 250416Z 11004KT 01/M11 A3022 RMK A01 T00121105  RH  041%=      5-min Rain = 0
KBY1 250417Z 10003KT 01/M11 A3022 RMK A01 T00121105  RH  041%=      5-min Rain = 0
KBY1 250418Z 11004KT 01/M11 A3022 RMK A01 T00121105  RH  041%=      5-min Rain = 0
KBY1 250419Z 11004KT 01/M11 A3023 RMK A01 T00121105  RH  041%=      5-min Rain = 0
KBY1 250420Z 10004KT 01/M11 A3023 RMK A01 T00121105  RH  041%=      5-min Rain = 0
KBY1 250421Z 10004KT 01/M11 A3023 RMK A01 T00131105  RH  041%=      5-min Rain = 0
KBY1 250422Z 10004KT 01/M11 A3022 RMK A01 T00121105  RH  041%=      5-min Rain = 0
KBY1 250423Z 09004KT 01/M11 A3022 RMK A01 T00121106  RH  041%=      5-min Rain = 0
KBY1 250424Z 10004KT 01/M11 A3022 RMK A01 T00121106  RH  041%=      5-min Rain = 0
KBY1 250425Z 10004KT 01/M11 A3022 RMK A01 T00131105  RH  041%=      5-min Rain = 0
KBY1 250426Z 10004KT 01/M11 A3022 RMK A01 T00131105  RH  041%=      5-min Rain = 0
KBY1 250427Z 10005KT 01/M11 A3022 RMK A01 T00141105  RH  041%=      5-min Rain = 0
KBY1 250428Z 09004KT 01/M11 A3022 RMK A01 T00131105  RH  041%=      5-min Rain = 0
KBY1 250429Z 09004KT 01/M11 A3022 RMK A01 T00121105  RH  041%=      5-min Rain = 0
KBY1 250430Z 09004KT 01/M11 A3022 RMK A01 T00111106  RH  042%=      5-min Rain = 0
KBY1 250431Z 09004KT 01/M11 A3023 RMK A01 T00111105  RH  042%=      5-min Rain = 0
KBY1 250432Z 10004KT 01/M10 A3023 RMK A01 T00111104  RH  042%=      5-min Rain = 0
KBY1 250433Z 10004KT 01/M10 A3023 RMK A01 T00111104  RH  042%=      5-min Rain = 0
KBY1 250434Z 10004KT 01/M11 A3023 RMK A01 T00111105  RH  042%=      5-min Rain = 0
KBY1 250435Z 10004KT 01/M11 A3023 RMK A01 T00111105  RH  042%=      5-min Rain = 0
KBY1 250436Z 11004KT 01/M11 A3023 RMK A01 T00111105  RH  042%=      5-min Rain = 0
KBY1 250437Z 11004KT 01/M11 A3023 RMK A01 T00101106  RH  042%=      5-min Rain = 0
KBY1 250438Z 11004KT 01/M11 A3023 RMK A01 T00101105  RH  042%=      5-min Rain = 0
KBY1 250439Z 12004KT 01/M11 A3023 RMK A01 T00091105  RH  042%=      5-min Rain = 0
KBY1 250440Z 12004KT 01/M11 A3023 RMK A01 T00091106  RH  042%=      5-min Rain = 0
KBY1 250441Z 12004KT 01/M11 A3023 RMK A01 T00091105  RH  042%=      5-min Rain = 0
KBY1 250442Z 12004KT 01/M11 A3023 RMK A01 T00091106  RH  042%=      5-min Rain = 0
KBY1 250443Z 12004KT 01/M11 A3023 RMK A01 T00091106  RH  042%=      5-min Rain = 0
KBY1 250444Z 11004KT 01/M11 A3023 RMK A01 T00091105  RH  042%=      5-min Rain = 0
KBY1 250445Z 11004KT 01/M11 A3023 RMK A01 T00091105  RH  042%=      5-min Rain = 0
KBY1 250446Z 11004KT 01/M11 A3023 RMK A01 T00081106  RH  042%=      5-min Rain = 0
KBY1 250447Z 10004KT 01/M11 A3023 RMK A01 T00071106  RH  042%=      5-min Rain = 0
KBY1 250448Z 10004KT 01/M11 A3023 RMK A01 T00071106  RH  043%=      5-min Rain = 0
KBY1 250449Z 10004KT 01/M11 A3023 RMK A01 T00061105  RH  043%=      5-min Rain = 0
KBY1 250450Z 11004KT 01/M11 A3023 RMK A01 T00051105  RH  043%=      5-min Rain = 0
KBY1 250451Z 10004KT 01/M11 A3023 RMK A01 T00051105  RH  044%=      5-min Rain = 0
KBY1 250452Z 11004KT 01/M11 A3023 RMK A01 T00051105  RH  044%=      5-min Rain = 0
KBY1 250453Z 10004KT 01/M11 A3023 RMK A01 T00051105  RH  044%=      5-min Rain = 0
KBY1 250454Z 10004KT 00/M11 A3022 RMK A01 T00041105  RH  044%=      5-min Rain = 0
KBY1 250455Z 10004KT 00/M11 A3022 RMK A01 T00041105  RH  044%=      5-min Rain = 0
KBY1 250456Z 10004KT 00/M11 A3022 RMK A01 T00041105  RH  044%=      5-min Rain = 0
KBY1 250457Z 10005KT 00/M11 A3022 RMK A01 T00041105  RH  044%=      5-min Rain = 0
KBY1 250458Z 10005KT 00/M11 A3022 RMK A01 T00041105  RH  044%=      5-min Rain = 0
KBY1 250459Z 10005KT 00/M11 A3022 RMK A01 T00041105  RH  044%=      5-min Rain = 0
KBY1 250500Z 10005KT 00/M11 A3022 RMK A01 T00041105  RH  044%=      5-min Rain = 0
KBY1 250501Z 10005KT 00/M11 A3022 RMK A01 T00041105  RH  044%=      5-min Rain = 0
KBY1 250502Z 10005KT 00/M11 A3022 RMK A01 T00041105  RH  044%=      5-min Rain = 0
KBY1 250503Z 10004KT 00/M11 A3022 RMK A01 T00041105  RH  044%=      5-min Rain = 0
KBY1 250504Z 10005KT 00/M11 A3022 RMK A01 T00041105  RH  044%=      5-min Rain = 0
KBY1 250505Z 10005KT 00/M11 A3022 RMK A01 T00041105  RH  044%=      5-min Rain = 0
KBY1 250506Z 10005KT 00/M11 A3022 RMK A01 T00041105  RH  044%=      5-min Rain = 0
KBY1 250507Z 10005KT 00/M10 A3022 RMK A01 T00041104  RH  044%=      5-min Rain = 0
KBY1 250508Z 10004KT 00/M10 A3022 RMK A01 T00031104  RH  044%=      5-min Rain = 0
KBY1 250509Z 11005KT 00/M11 A3022 RMK A01 T00031105  RH  044%=      5-min Rain = 0
KBY1 250510Z 11005KT 00/M11 A3022 RMK A01 T00031105  RH  044%=      5-min Rain = 0
KBY1 250511Z 11005KT 00/M11 A3022 RMK A01 T00021105  RH  044%=      5-min Rain = 0
KBY1 250512Z 11005KT 00/M11 A3022 RMK A01 T00011106  RH  045%=      5-min Rain = 0
KBY1 250513Z 11005KT 00/M11 A3022 RMK A01 T00011106  RH  045%=      5-min Rain = 0
KBY1 250514Z 11005KT 00/M11 A3022 RMK A01 T00011105  RH  045%=      5-min Rain = 0
KBY1 250515Z 11005KT 00/M10 A3022 RMK A01 T00011104  RH  045%=      5-min Rain = 0
KBY1 250516Z 11005KT 00/11 A3022 RMK A01 T00000-105  RH  045%=      5-min Rain = 0
KBY1 250517Z 11005KT 00/11 A3022 RMK A01 T00-00-105  RH  045%=      5-min Rain = 0
KBY1 250518Z 11005KT M00/M11 A3022 RMK A01 T10011105  RH  046%=      5-min Rain = 0
KBY1 250519Z 11005KT M00/M11 A3022 RMK A01 T10011105  RH  046%=      5-min Rain = 0
KBY1 250520Z 11005KT M00/M11 A3022 RMK A01 T10021105  RH  046%=      5-min Rain = 0
KBY1 250521Z 11005KT M00/M11 A3022 RMK A01 T10021105  RH  046%=      5-min Rain = 0
KBY1 250522Z 11005KT M00/M10 A3022 RMK A01 T10021104  RH  046%=      5-min Rain = 0
KBY1 250523Z 11005KT M00/M11 A3022 RMK A01 T10021105  RH  046%=      5-min Rain = 0
KBY1 250524Z 11005KT M00/M11 A3022 RMK A01 T10021105  RH  046%=      5-min Rain = 0
KBY1 250525Z 11005KT M00/M11 A3022 RMK A01 T10011105  RH  046%=      5-min Rain = 0
KBY1 250526Z 11005KT 00/11 A3022 RMK A01 T00-00-105  RH  045%=      5-min Rain = 0
KBY1 250527Z 11004KT 00/11 A3021 RMK A01 T00-00-105  RH  045%=      5-min Rain = 0
KBY1 250528Z 11004KT 00/M10 A3021 RMK A01 T00011104  RH  045%=      5-min Rain = 0
KBY1 250529Z 11004KT 00/M10 A3022 RMK A01 T00011104  RH  045%=      5-min Rain = 0
KBY1 250530Z 11003KT 00/M10 A3022 RMK A01 T00011104  RH  045%=      5-min Rain = 0
KBY1 250531Z 11003KT 00/M10 A3021 RMK A01 T00011104  RH  045%=      5-min Rain = 0
KBY1 250532Z 10003KT 00/M10 A3021 RMK A01 T00011104  RH  045%=      5-min Rain = 0
KBY1 250533Z 10002KT 00/M11 A3021 RMK A01 T00011105  RH  045%=      5-min Rain = 0
KBY1 250534Z 10003KT 00/M11 A3022 RMK A01 T00011105  RH  045%=      5-min Rain = 0
KBY1 250535Z 10003KT 00/M11 A3022 RMK A01 T00011105  RH  045%=      5-min Rain = 0
KBY1 250536Z 10003KT 00/M10 A3022 RMK A01 T00011104  RH  045%=      5-min Rain = 0
KBY1 250537Z 10003KT 00/M10 A3022 RMK A01 T00011104  RH  045%=      5-min Rain = 0
KBY1 250538Z 10003KT 00/10 A3021 RMK A01 T00000-104  RH  045%=      5-min Rain = 0
KBY1 250539Z 10004KT 00/10 A3021 RMK A01 T00000-104  RH  045%=      5-min Rain = 0
KBY1 250540Z 10004KT 00/10 A3021 RMK A01 T00000-104  RH  045%=      5-min Rain = 0
KBY1 250541Z 10004KT 00/11 A3021 RMK A01 T00-00-105  RH  045%=      5-min Rain = 0
KBY1 250542Z 10003KT M00/M10 A3021 RMK A01 T10011104  RH  046%=      5-min Rain = 0
KBY1 250543Z 10003KT M00/M10 A3021 RMK A01 T10011104  RH  046%=      5-min Rain = 0
KBY1 250544Z 09003KT M00/M10 A3021 RMK A01 T10011103  RH  046%=      5-min Rain = 0
KBY1 250545Z 10003KT M00/M10 A3021 RMK A01 T10021103  RH  046%=      5-min Rain = 0
KBY1 250546Z 10003KT M00/M10 A3021 RMK A01 T10031104  RH  047%=      5-min Rain = 0
KBY1 250547Z 10003KT M00/M10 A3021 RMK A01 T10031104  RH  047%=      5-min Rain = 0
KBY1 250548Z 11003KT M00/M10 A3021 RMK A01 T10041104  RH  047%=      5-min Rain = 0
KBY1 250549Z 11002KT M00/M10 A3021 RMK A01 T10041104  RH  047%=      5-min Rain = 0
KBY1 250550Z 11003KT M00/M10 A3021 RMK A01 T10031104  RH  047%=      5-min Rain = 0
KBY1 250551Z 11002KT M00/M10 A3021 RMK A01 T10041104  RH  047%=      5-min Rain = 0
KBY1 250552Z 11002KT M00/M10 A3022 RMK A01 T10041104  RH  047%=      5-min Rain = 0
KBY1 250553Z 12002KT M00/M10 A3022 RMK A01 T10041104  RH  047%=      5-min Rain = 0
KBY1 250554Z 11003KT M00/M10 A3022 RMK A01 T10041104  RH  047%=      5-min Rain = 0
KBY1 250555Z 11002KT M00/M10 A3022 RMK A01 T10041104  RH  047%=      5-min Rain = 0
KBY1 250556Z 10003KT M00/M10 A3022 RMK A01 T10041104  RH  047%=      5-min Rain = 0
KBY1 250557Z 10003KT M00/M10 A3022 RMK A01 T10041104  RH  047%=      5-min Rain = 0
KBY1 250558Z 10003KT M00/M10 A3022 RMK A01 T10041104  RH  047%=      5-min Rain = 0
KBY1 250559Z 09003KT M00/M10 A3022 RMK A01 T10031103  RH  047%=      5-min Rain = 0

Page generated in 0.0646 seconds.